<?xml version="1.0" encoding="UTF-8" standalone="no" ?>
<gpx xmlns="http://www.topografix.com/GPX/1/1" xmlns:xsi="http://www.w3.org/2001/XMLSchema-instance" xsi:schemaLocation="http://www.topografix.com/GPX/1/1 http://www.topografix.com/GPX/1/1/gpx.xsd" version="1.1" creator="VisuGPX - https://www.visugpx.com">
  <metadata>
    <name>Vassieux nord - Grands Goulets</name>
  </metadata>
  <trk>
    <name><![CDATA[Vassieux nord - Grands Goulets]]></name>
    <extensions>
      <line xmlns="http://www.topografix.com/GPX/gpx_style/0/2">
        <color>0000FF</color>
        <width>4</width>
      </line>
    </extensions>
    <trkseg>
      <trkpt lat="44.89544" lon="5.37067">
        <ele>1059.2267710307</ele>
        <time>2021-07-14T14:04:29.000Z</time>
      </trkpt>
      <trkpt lat="44.89542" lon="5.37067">
        <ele>1058.9350115084</ele>
        <time>2021-07-14T14:04:29.000Z</time>
      </trkpt>
      <trkpt lat="44.89536" lon="5.37073">
        <ele>1058.744148524</ele>
        <time>2021-07-14T14:04:29.002Z</time>
      </trkpt>
      <trkpt lat="44.89537" lon="5.3708">
        <ele>1058.5434499868</ele>
        <time>2021-07-14T14:04:29.005Z</time>
      </trkpt>
      <trkpt lat="44.8954" lon="5.37083">
        <ele>1058.2836807153</ele>
        <time>2021-07-14T14:04:29.009Z</time>
      </trkpt>
      <trkpt lat="44.89546" lon="5.37082">
        <ele>1057.9664623043</ele>
        <time>2021-07-14T14:04:29.014Z</time>
      </trkpt>
      <trkpt lat="44.89547" lon="5.37079">
        <ele>1057.5905012675</ele>
        <time>2021-07-14T14:04:29.019Z</time>
      </trkpt>
      <trkpt lat="44.89554" lon="5.37102">
        <ele>1057.1630613234</ele>
        <time>2021-07-14T14:04:29.028Z</time>
      </trkpt>
      <trkpt lat="44.8956" lon="5.37128">
        <ele>1056.7668511326</ele>
        <time>2021-07-14T14:04:29.041Z</time>
      </trkpt>
      <trkpt lat="44.89574" lon="5.37193">
        <ele>1056.2977912094</ele>
        <time>2021-07-14T14:04:29.063Z</time>
      </trkpt>
      <trkpt lat="44.89584" lon="5.37249">
        <ele>1055.1940362372</ele>
        <time>2021-07-14T14:04:29.115Z</time>
      </trkpt>
      <trkpt lat="44.8959" lon="5.37274">
        <ele>1054.630320243</ele>
        <time>2021-07-14T14:04:29.149Z</time>
      </trkpt>
      <trkpt lat="44.89605" lon="5.37299">
        <ele>1054.0040429505</ele>
        <time>2021-07-14T14:04:29.188Z</time>
      </trkpt>
      <trkpt lat="44.89618" lon="5.37331">
        <ele>1053.2516567238</ele>
        <time>2021-07-14T14:04:29.232Z</time>
      </trkpt>
      <trkpt lat="44.89647" lon="5.37349">
        <ele>1052.2903682948</ele>
        <time>2021-07-14T14:04:29.283Z</time>
      </trkpt>
      <trkpt lat="44.89665" lon="5.37422">
        <ele>1051.2943251668</ele>
        <time>2021-07-14T14:04:29.345Z</time>
      </trkpt>
      <trkpt lat="44.89682" lon="5.37513">
        <ele>1049.325442406</ele>
        <time>2021-07-14T14:04:29.482Z</time>
      </trkpt>
      <trkpt lat="44.89698" lon="5.37566">
        <ele>1048.2172755919</ele>
        <time>2021-07-14T14:04:29.565Z</time>
      </trkpt>
      <trkpt lat="44.89742" lon="5.37601">
        <ele>1046.6776727054</ele>
        <time>2021-07-14T14:04:29.658Z</time>
      </trkpt>
      <trkpt lat="44.89787" lon="5.37651">
        <ele>1045.0972224161</ele>
        <time>2021-07-14T14:04:29.763Z</time>
      </trkpt>
      <trkpt lat="44.89811" lon="5.37705">
        <ele>1043.8383821576</ele>
        <time>2021-07-14T14:04:29.877Z</time>
      </trkpt>
      <trkpt lat="44.89815" lon="5.37739">
        <ele>1042.8740975034</ele>
        <time>2021-07-14T14:04:29.996Z</time>
      </trkpt>
      <trkpt lat="44.89805" lon="5.37791">
        <ele>1042.0676653773</ele>
        <time>2021-07-14T14:04:30.122Z</time>
      </trkpt>
      <trkpt lat="44.89818" lon="5.37817">
        <ele>1041.4073277043</ele>
        <time>2021-07-14T14:04:30.253Z</time>
      </trkpt>
      <trkpt lat="44.89854" lon="5.3784">
        <ele>1040.8837283214</ele>
        <time>2021-07-14T14:04:30.392Z</time>
      </trkpt>
      <trkpt lat="44.8987" lon="5.37874">
        <ele>1040.833311257</ele>
        <time>2021-07-14T14:04:30.536Z</time>
      </trkpt>
      <trkpt lat="44.89875" lon="5.37903">
        <ele>1041.0408133406</ele>
        <time>2021-07-14T14:04:30.685Z</time>
      </trkpt>
      <trkpt lat="44.89869" lon="5.3794">
        <ele>1041.3315541281</ele>
        <time>2021-07-14T14:04:30.839Z</time>
      </trkpt>
      <trkpt lat="44.89871" lon="5.38002">
        <ele>1041.8636791139</ele>
        <time>2021-07-14T14:04:31.002Z</time>
      </trkpt>
      <trkpt lat="44.89883" lon="5.38058">
        <ele>1042.6566973999</ele>
        <time>2021-07-14T14:04:31.173Z</time>
      </trkpt>
      <trkpt lat="44.89911" lon="5.38049">
        <ele>1043.5866062178</ele>
        <time>2021-07-14T14:04:31.350Z</time>
      </trkpt>
      <trkpt lat="44.89942" lon="5.38061">
        <ele>1044.6369316158</ele>
        <time>2021-07-14T14:04:31.533Z</time>
      </trkpt>
      <trkpt lat="44.89955" lon="5.38089">
        <ele>1045.6698553853</ele>
        <time>2021-07-14T14:04:31.721Z</time>
      </trkpt>
      <trkpt lat="44.89965" lon="5.38129">
        <ele>1046.7492795711</ele>
        <time>2021-07-14T14:04:31.915Z</time>
      </trkpt>
      <trkpt lat="44.89995" lon="5.38164">
        <ele>1047.9617220227</ele>
        <time>2021-07-14T14:04:32.117Z</time>
      </trkpt>
      <trkpt lat="44.9" lon="5.38179">
        <ele>1049.0510983099</ele>
        <time>2021-07-14T14:04:32.321Z</time>
      </trkpt>
      <trkpt lat="44.90004" lon="5.38192">
        <ele>1050.9525746945</ele>
        <time>2021-07-14T14:04:32.731Z</time>
      </trkpt>
      <trkpt lat="44.90008" lon="5.38249">
        <ele>1051.841425749</ele>
        <time>2021-07-14T14:04:32.945Z</time>
      </trkpt>
      <trkpt lat="44.90009" lon="5.38285">
        <ele>1052.6351049437</ele>
        <time>2021-07-14T14:04:33.165Z</time>
      </trkpt>
      <trkpt lat="44.9003" lon="5.38319">
        <ele>1053.4515894709</ele>
        <time>2021-07-14T14:04:33.391Z</time>
      </trkpt>
      <trkpt lat="44.90066" lon="5.38361">
        <ele>1054.2311186622</ele>
        <time>2021-07-14T14:04:33.626Z</time>
      </trkpt>
      <trkpt lat="44.90083" lon="5.38386">
        <ele>1054.659902524</ele>
        <time>2021-07-14T14:04:33.866Z</time>
      </trkpt>
      <trkpt lat="44.90152" lon="5.38434">
        <ele>1054.9584399058</ele>
        <time>2021-07-14T14:04:34.122Z</time>
      </trkpt>
      <trkpt lat="44.90185" lon="5.38474">
        <ele>1055.1768010886</ele>
        <time>2021-07-14T14:04:34.386Z</time>
      </trkpt>
      <trkpt lat="44.90219" lon="5.38531">
        <ele>1055.2801762855</ele>
        <time>2021-07-14T14:04:34.661Z</time>
      </trkpt>
      <trkpt lat="44.90304" lon="5.38577">
        <ele>1055.3848741594</ele>
        <time>2021-07-14T14:04:34.954Z</time>
      </trkpt>
      <trkpt lat="44.90377" lon="5.38644">
        <ele>1055.2522822587</ele>
        <time>2021-07-14T14:04:35.265Z</time>
      </trkpt>
      <trkpt lat="44.90415" lon="5.38699">
        <ele>1055.3294724688</ele>
        <time>2021-07-14T14:04:35.586Z</time>
      </trkpt>
      <trkpt lat="44.90477" lon="5.38753">
        <ele>1055.5804963781</ele>
        <time>2021-07-14T14:04:35.922Z</time>
      </trkpt>
      <trkpt lat="44.90501" lon="5.38746">
        <ele>1055.60281979</ele>
        <time>2021-07-14T14:04:36.263Z</time>
      </trkpt>
      <trkpt lat="44.90528" lon="5.38718">
        <ele>1055.4602965231</ele>
        <time>2021-07-14T14:04:36.611Z</time>
      </trkpt>
      <trkpt lat="44.90562" lon="5.38703">
        <ele>1055.259853053</ele>
        <time>2021-07-14T14:04:36.966Z</time>
      </trkpt>
      <trkpt lat="44.90618" lon="5.38655">
        <ele>1054.9542634912</ele>
        <time>2021-07-14T14:04:37.334Z</time>
      </trkpt>
      <trkpt lat="44.90638" lon="5.38624">
        <ele>1054.8637653531</ele>
        <time>2021-07-14T14:04:37.708Z</time>
      </trkpt>
      <trkpt lat="44.90649" lon="5.38599">
        <ele>1054.6560937535</ele>
        <time>2021-07-14T14:04:38.086Z</time>
      </trkpt>
      <trkpt lat="44.90658" lon="5.38603">
        <ele>1054.4467568552</ele>
        <time>2021-07-14T14:04:38.466Z</time>
      </trkpt>
      <trkpt lat="44.9067" lon="5.38626">
        <ele>1054.2738261069</ele>
        <time>2021-07-14T14:04:38.850Z</time>
      </trkpt>
      <trkpt lat="44.90683" lon="5.38669">
        <ele>1054.0229226236</ele>
        <time>2021-07-14T14:04:39.241Z</time>
      </trkpt>
      <trkpt lat="44.90668" lon="5.38749">
        <ele>1053.7209815324</ele>
        <time>2021-07-14T14:04:39.643Z</time>
      </trkpt>
      <trkpt lat="44.90668" lon="5.38751">
        <ele>1053.3410418739</ele>
        <time>2021-07-14T14:04:40.448Z</time>
      </trkpt>
      <trkpt lat="44.90642" lon="5.38836">
        <ele>1053.1065414376</ele>
        <time>2021-07-14T14:04:40.864Z</time>
      </trkpt>
      <trkpt lat="44.90636" lon="5.38868">
        <ele>1052.9812439622</ele>
        <time>2021-07-14T14:04:41.285Z</time>
      </trkpt>
      <trkpt lat="44.90631" lon="5.38951">
        <ele>1052.9944683994</ele>
        <time>2021-07-14T14:04:41.717Z</time>
      </trkpt>
      <trkpt lat="44.90626" lon="5.38993">
        <ele>1052.863363287</ele>
        <time>2021-07-14T14:04:42.155Z</time>
      </trkpt>
      <trkpt lat="44.9061" lon="5.39251">
        <ele>1052.7713077404</ele>
        <time>2021-07-14T14:04:42.630Z</time>
      </trkpt>
      <trkpt lat="44.90625" lon="5.3931">
        <ele>1052.9079747385</ele>
        <time>2021-07-14T14:04:43.114Z</time>
      </trkpt>
      <trkpt lat="44.90632" lon="5.39401">
        <ele>1053.0663774657</ele>
        <time>2021-07-14T14:04:43.611Z</time>
      </trkpt>
      <trkpt lat="44.90632" lon="5.39462">
        <ele>1053.0906644085</ele>
        <time>2021-07-14T14:04:44.117Z</time>
      </trkpt>
      <trkpt lat="44.90628" lon="5.3949">
        <ele>1053.0363515653</ele>
        <time>2021-07-14T14:04:44.627Z</time>
      </trkpt>
      <trkpt lat="44.90634" lon="5.39525">
        <ele>1053.053761667</ele>
        <time>2021-07-14T14:04:45.142Z</time>
      </trkpt>
      <trkpt lat="44.9067" lon="5.39679">
        <ele>1053.3337240101</ele>
        <time>2021-07-14T14:04:45.680Z</time>
      </trkpt>
      <trkpt lat="44.90672" lon="5.39732">
        <ele>1053.3858414058</ele>
        <time>2021-07-14T14:04:46.226Z</time>
      </trkpt>
      <trkpt lat="44.90683" lon="5.3977">
        <ele>1053.3119421051</ele>
        <time>2021-07-14T14:04:46.777Z</time>
      </trkpt>
      <trkpt lat="44.90709" lon="5.39805">
        <ele>1053.272144734</ele>
        <time>2021-07-14T14:04:47.336Z</time>
      </trkpt>
      <trkpt lat="44.90726" lon="5.39866">
        <ele>1053.370556905</ele>
        <time>2021-07-14T14:04:47.904Z</time>
      </trkpt>
      <trkpt lat="44.90736" lon="5.3989">
        <ele>1053.4736352309</ele>
        <time>2021-07-14T14:04:48.476Z</time>
      </trkpt>
      <trkpt lat="44.90742" lon="5.39905">
        <ele>1053.5183554143</ele>
        <time>2021-07-14T14:04:49.050Z</time>
      </trkpt>
      <trkpt lat="44.90761" lon="5.3993">
        <ele>1053.5224041695</ele>
        <time>2021-07-14T14:04:49.630Z</time>
      </trkpt>
      <trkpt lat="44.90818" lon="5.3996">
        <ele>1053.6190792826</ele>
        <time>2021-07-14T14:04:50.222Z</time>
      </trkpt>
      <trkpt lat="44.90844" lon="5.40021">
        <ele>1053.8009583566</ele>
        <time>2021-07-14T14:04:50.824Z</time>
      </trkpt>
      <trkpt lat="44.90886" lon="5.40081">
        <ele>1054.0933748781</ele>
        <time>2021-07-14T14:04:51.438Z</time>
      </trkpt>
      <trkpt lat="44.90921" lon="5.4011">
        <ele>1054.1245582402</ele>
        <time>2021-07-14T14:04:52.060Z</time>
      </trkpt>
      <trkpt lat="44.9096" lon="5.40112">
        <ele>1054.1592572738</ele>
        <time>2021-07-14T14:04:52.690Z</time>
      </trkpt>
      <trkpt lat="44.9103" lon="5.40075">
        <ele>1054.4189435078</ele>
        <time>2021-07-14T14:04:53.335Z</time>
      </trkpt>
      <trkpt lat="44.91082" lon="5.4002">
        <ele>1054.6909178913</ele>
        <time>2021-07-14T14:04:53.993Z</time>
      </trkpt>
      <trkpt lat="44.91177" lon="5.4001">
        <ele>1055.3189979921</ele>
        <time>2021-07-14T14:04:54.670Z</time>
      </trkpt>
      <trkpt lat="44.91215" lon="5.40042">
        <ele>1055.9656203808</ele>
        <time>2021-07-14T14:04:55.356Z</time>
      </trkpt>
      <trkpt lat="44.9122" lon="5.4005">
        <ele>1056.5712855227</ele>
        <time>2021-07-14T14:04:56.043Z</time>
      </trkpt>
      <trkpt lat="44.91253" lon="5.40105">
        <ele>1057.3776034672</ele>
        <time>2021-07-14T14:04:56.740Z</time>
      </trkpt>
      <trkpt lat="44.91274" lon="5.4017">
        <ele>1058.2525875345</ele>
        <time>2021-07-14T14:04:57.447Z</time>
      </trkpt>
      <trkpt lat="44.91309" lon="5.40227">
        <ele>1059.0706586173</ele>
        <time>2021-07-14T14:04:58.165Z</time>
      </trkpt>
      <trkpt lat="44.91316" lon="5.4024">
        <ele>1060.7801511834</ele>
        <time>2021-07-14T14:04:59.603Z</time>
      </trkpt>
      <trkpt lat="44.91347" lon="5.40261">
        <ele>1061.763687901</ele>
        <time>2021-07-14T14:05:00.330Z</time>
      </trkpt>
      <trkpt lat="44.91427" lon="5.40257">
        <ele>1062.700923421</ele>
        <time>2021-07-14T14:05:01.073Z</time>
      </trkpt>
      <trkpt lat="44.91477" lon="5.40238">
        <ele>1063.7027251373</ele>
        <time>2021-07-14T14:05:01.827Z</time>
      </trkpt>
      <trkpt lat="44.91512" lon="5.40203">
        <ele>1064.7168415697</ele>
        <time>2021-07-14T14:05:02.589Z</time>
      </trkpt>
      <trkpt lat="44.91523" lon="5.40204">
        <ele>1065.8903198724</ele>
        <time>2021-07-14T14:05:03.353Z</time>
      </trkpt>
      <trkpt lat="44.91578" lon="5.40211">
        <ele>1066.9947407877</ele>
        <time>2021-07-14T14:05:04.128Z</time>
      </trkpt>
      <trkpt lat="44.91592" lon="5.403">
        <ele>1068.3436864127</ele>
        <time>2021-07-14T14:05:04.916Z</time>
      </trkpt>
      <trkpt lat="44.91586" lon="5.40333">
        <ele>1069.8968802272</ele>
        <time>2021-07-14T14:05:05.709Z</time>
      </trkpt>
      <trkpt lat="44.91571" lon="5.40381">
        <ele>1071.6990161098</ele>
        <time>2021-07-14T14:05:06.510Z</time>
      </trkpt>
      <trkpt lat="44.91557" lon="5.40437">
        <ele>1073.5302870867</ele>
        <time>2021-07-14T14:05:07.319Z</time>
      </trkpt>
      <trkpt lat="44.91552" lon="5.40468">
        <ele>1075.1873668017</ele>
        <time>2021-07-14T14:05:08.133Z</time>
      </trkpt>
      <trkpt lat="44.91534" lon="5.40494">
        <ele>1076.9778326395</ele>
        <time>2021-07-14T14:05:08.952Z</time>
      </trkpt>
      <trkpt lat="44.915" lon="5.40522">
        <ele>1079.0534227301</ele>
        <time>2021-07-14T14:05:09.779Z</time>
      </trkpt>
      <trkpt lat="44.9147" lon="5.40562">
        <ele>1080.8293915587</ele>
        <time>2021-07-14T14:05:10.614Z</time>
      </trkpt>
      <trkpt lat="44.91448" lon="5.40597">
        <ele>1082.5705906399</ele>
        <time>2021-07-14T14:05:11.456Z</time>
      </trkpt>
      <trkpt lat="44.91427" lon="5.40615">
        <ele>1084.2880144771</ele>
        <time>2021-07-14T14:05:12.303Z</time>
      </trkpt>
      <trkpt lat="44.91409" lon="5.40644">
        <ele>1085.8583199706</ele>
        <time>2021-07-14T14:05:13.155Z</time>
      </trkpt>
      <trkpt lat="44.91389" lon="5.4065">
        <ele>1087.4208755194</ele>
        <time>2021-07-14T14:05:14.011Z</time>
      </trkpt>
      <trkpt lat="44.91369" lon="5.40641">
        <ele>1088.9793306071</ele>
        <time>2021-07-14T14:05:14.871Z</time>
      </trkpt>
      <trkpt lat="44.91368" lon="5.40675">
        <ele>1090.3713050438</ele>
        <time>2021-07-14T14:05:15.736Z</time>
      </trkpt>
      <trkpt lat="44.91394" lon="5.40722">
        <ele>1091.7210983173</ele>
        <time>2021-07-14T14:05:16.610Z</time>
      </trkpt>
      <trkpt lat="44.91444" lon="5.40782">
        <ele>1093.0929737828</ele>
        <time>2021-07-14T14:05:17.497Z</time>
      </trkpt>
      <trkpt lat="44.91492" lon="5.40773">
        <ele>1094.370544025</ele>
        <time>2021-07-14T14:05:18.394Z</time>
      </trkpt>
      <trkpt lat="44.91526" lon="5.40745">
        <ele>1095.6298738987</ele>
        <time>2021-07-14T14:05:19.299Z</time>
      </trkpt>
      <trkpt lat="44.91566" lon="5.40684">
        <ele>1096.7134127875</ele>
        <time>2021-07-14T14:05:20.215Z</time>
      </trkpt>
      <trkpt lat="44.9161" lon="5.40694">
        <ele>1097.8439370637</ele>
        <time>2021-07-14T14:05:21.140Z</time>
      </trkpt>
      <trkpt lat="44.91621" lon="5.40799">
        <ele>1098.8574821044</ele>
        <time>2021-07-14T14:05:22.080Z</time>
      </trkpt>
      <trkpt lat="44.91612" lon="5.40823">
        <ele>1100.0939512512</ele>
        <time>2021-07-14T14:05:23.024Z</time>
      </trkpt>
      <trkpt lat="44.91635" lon="5.40858">
        <ele>1101.1682983815</ele>
        <time>2021-07-14T14:05:23.975Z</time>
      </trkpt>
      <trkpt lat="44.91643" lon="5.40858">
        <ele>1102.1048118584</ele>
        <time>2021-07-14T14:05:24.928Z</time>
      </trkpt>
      <trkpt lat="44.91665" lon="5.40857">
        <ele>1102.9509118143</ele>
        <time>2021-07-14T14:05:25.885Z</time>
      </trkpt>
      <trkpt lat="44.91701" lon="5.40855">
        <ele>1104.6889049797</ele>
        <time>2021-07-14T14:05:27.806Z</time>
      </trkpt>
      <trkpt lat="44.91766" lon="5.40832">
        <ele>1105.5770897758</ele>
        <time>2021-07-14T14:05:28.783Z</time>
      </trkpt>
      <trkpt lat="44.91839" lon="5.40847">
        <ele>1106.792291462</ele>
        <time>2021-07-14T14:05:29.775Z</time>
      </trkpt>
      <trkpt lat="44.91865" lon="5.40872">
        <ele>1107.7477392222</ele>
        <time>2021-07-14T14:05:30.774Z</time>
      </trkpt>
      <trkpt lat="44.91866" lon="5.40951">
        <ele>1108.6245781612</ele>
        <time>2021-07-14T14:05:31.784Z</time>
      </trkpt>
      <trkpt lat="44.91866" lon="5.40968">
        <ele>1109.9386294972</ele>
        <time>2021-07-14T14:05:33.806Z</time>
      </trkpt>
      <trkpt lat="44.91881" lon="5.41027">
        <ele>1110.6339590419</ele>
        <time>2021-07-14T14:05:34.827Z</time>
      </trkpt>
      <trkpt lat="44.91908" lon="5.41043">
        <ele>1111.1374277023</ele>
        <time>2021-07-14T14:05:35.854Z</time>
      </trkpt>
      <trkpt lat="44.91921" lon="5.41068">
        <ele>1111.4401892318</ele>
        <time>2021-07-14T14:05:36.885Z</time>
      </trkpt>
      <trkpt lat="44.91931" lon="5.41088">
        <ele>1111.6393185745</ele>
        <time>2021-07-14T14:05:37.920Z</time>
      </trkpt>
      <trkpt lat="44.91946" lon="5.41132">
        <ele>1111.8476841998</ele>
        <time>2021-07-14T14:05:38.962Z</time>
      </trkpt>
      <trkpt lat="44.91946" lon="5.41146">
        <ele>1111.990344863</ele>
        <time>2021-07-14T14:05:40.006Z</time>
      </trkpt>
      <trkpt lat="44.91946" lon="5.41155">
        <ele>1112.0107893408</ele>
        <time>2021-07-14T14:05:41.051Z</time>
      </trkpt>
      <trkpt lat="44.91961" lon="5.41164">
        <ele>1111.974769994</ele>
        <time>2021-07-14T14:05:42.099Z</time>
      </trkpt>
      <trkpt lat="44.91987" lon="5.41155">
        <ele>1111.8012594986</ele>
        <time>2021-07-14T14:05:43.153Z</time>
      </trkpt>
      <trkpt lat="44.92" lon="5.41144">
        <ele>1111.454103733</ele>
        <time>2021-07-14T14:05:44.210Z</time>
      </trkpt>
      <trkpt lat="44.92023" lon="5.41139">
        <ele>1111.0611334729</ele>
        <time>2021-07-14T14:05:45.271Z</time>
      </trkpt>
      <trkpt lat="44.9204" lon="5.41122">
        <ele>1110.4928846459</ele>
        <time>2021-07-14T14:05:46.337Z</time>
      </trkpt>
      <trkpt lat="44.92046" lon="5.41116">
        <ele>1109.856890014</ele>
        <time>2021-07-14T14:05:47.404Z</time>
      </trkpt>
      <trkpt lat="44.92048" lon="5.41115">
        <ele>1109.1891003194</ele>
        <time>2021-07-14T14:05:48.471Z</time>
      </trkpt>
      <trkpt lat="44.92069" lon="5.41102">
        <ele>1107.6203901025</ele>
        <time>2021-07-14T14:05:49.543Z</time>
      </trkpt>
      <trkpt lat="44.92074" lon="5.411">
        <ele>1106.7829810987</ele>
        <time>2021-07-14T14:05:50.616Z</time>
      </trkpt>
      <trkpt lat="44.92084" lon="5.41071">
        <ele>1105.8117249406</ele>
        <time>2021-07-14T14:05:51.694Z</time>
      </trkpt>
      <trkpt lat="44.92079" lon="5.41032">
        <ele>1104.9838695858</ele>
        <time>2021-07-14T14:05:52.777Z</time>
      </trkpt>
      <trkpt lat="44.92084" lon="5.41004">
        <ele>1104.189043028</ele>
        <time>2021-07-14T14:05:53.864Z</time>
      </trkpt>
      <trkpt lat="44.92097" lon="5.40944">
        <ele>1102.6856348898</ele>
        <time>2021-07-14T14:05:56.047Z</time>
      </trkpt>
      <trkpt lat="44.9212" lon="5.40889">
        <ele>1101.9481584256</ele>
        <time>2021-07-14T14:05:57.152Z</time>
      </trkpt>
      <trkpt lat="44.92156" lon="5.40864">
        <ele>1101.2454491912</ele>
        <time>2021-07-14T14:05:58.265Z</time>
      </trkpt>
      <trkpt lat="44.92207" lon="5.40845">
        <ele>1100.6665780743</ele>
        <time>2021-07-14T14:05:59.389Z</time>
      </trkpt>
      <trkpt lat="44.92244" lon="5.40891">
        <ele>1099.9184614727</ele>
        <time>2021-07-14T14:06:00.523Z</time>
      </trkpt>
      <trkpt lat="44.92254" lon="5.40929">
        <ele>1099.4529426724</ele>
        <time>2021-07-14T14:06:01.662Z</time>
      </trkpt>
      <trkpt lat="44.92284" lon="5.40953">
        <ele>1099.1575282195</ele>
        <time>2021-07-14T14:06:02.808Z</time>
      </trkpt>
      <trkpt lat="44.92302" lon="5.41012">
        <ele>1099.1489008948</ele>
        <time>2021-07-14T14:06:03.964Z</time>
      </trkpt>
      <trkpt lat="44.92322" lon="5.41094">
        <ele>1098.9806657422</ele>
        <time>2021-07-14T14:06:05.132Z</time>
      </trkpt>
      <trkpt lat="44.92331" lon="5.41168">
        <ele>1099.1017100155</ele>
        <time>2021-07-14T14:06:06.311Z</time>
      </trkpt>
      <trkpt lat="44.9236" lon="5.4121">
        <ele>1099.6334210423</ele>
        <time>2021-07-14T14:06:07.498Z</time>
      </trkpt>
      <trkpt lat="44.92371" lon="5.4122">
        <ele>1100.3572993124</ele>
        <time>2021-07-14T14:06:08.688Z</time>
      </trkpt>
      <trkpt lat="44.92411" lon="5.41255">
        <ele>1102.557875761</ele>
        <time>2021-07-14T14:06:11.077Z</time>
      </trkpt>
      <trkpt lat="44.92452" lon="5.41278">
        <ele>1104.0549157421</ele>
        <time>2021-07-14T14:06:12.285Z</time>
      </trkpt>
      <trkpt lat="44.92478" lon="5.41275">
        <ele>1105.7238133514</ele>
        <time>2021-07-14T14:06:13.498Z</time>
      </trkpt>
      <trkpt lat="44.92526" lon="5.41258">
        <ele>1107.5065685323</ele>
        <time>2021-07-14T14:06:14.721Z</time>
      </trkpt>
      <trkpt lat="44.92578" lon="5.41282">
        <ele>1109.5260026105</ele>
        <time>2021-07-14T14:06:15.955Z</time>
      </trkpt>
      <trkpt lat="44.9261" lon="5.41306">
        <ele>1111.7813288947</ele>
        <time>2021-07-14T14:06:17.196Z</time>
      </trkpt>
      <trkpt lat="44.92629" lon="5.41312">
        <ele>1114.1403260575</ele>
        <time>2021-07-14T14:06:18.441Z</time>
      </trkpt>
      <trkpt lat="44.92652" lon="5.41311">
        <ele>1116.7538186961</ele>
        <time>2021-07-14T14:06:19.691Z</time>
      </trkpt>
      <trkpt lat="44.92689" lon="5.41343">
        <ele>1119.4300098416</ele>
        <time>2021-07-14T14:06:20.949Z</time>
      </trkpt>
      <trkpt lat="44.92732" lon="5.41353">
        <ele>1122.045330971</ele>
        <time>2021-07-14T14:06:22.216Z</time>
      </trkpt>
      <trkpt lat="44.92846" lon="5.41421">
        <ele>1125.496067457</ele>
        <time>2021-07-14T14:06:23.508Z</time>
      </trkpt>
      <trkpt lat="44.92873" lon="5.41449">
        <ele>1128.4027972731</ele>
        <time>2021-07-14T14:06:24.806Z</time>
      </trkpt>
      <trkpt lat="44.92878" lon="5.41477">
        <ele>1131.130261007</ele>
        <time>2021-07-14T14:06:26.109Z</time>
      </trkpt>
      <trkpt lat="44.92881" lon="5.41481">
        <ele>1133.6622571783</ele>
        <time>2021-07-14T14:06:27.412Z</time>
      </trkpt>
      <trkpt lat="44.92891" lon="5.41489">
        <ele>1136.1143086582</ele>
        <time>2021-07-14T14:06:28.718Z</time>
      </trkpt>
      <trkpt lat="44.92916" lon="5.41495">
        <ele>1138.4394117892</ele>
        <time>2021-07-14T14:06:30.029Z</time>
      </trkpt>
      <trkpt lat="44.92958" lon="5.41519">
        <ele>1140.6567327929</ele>
        <time>2021-07-14T14:06:31.349Z</time>
      </trkpt>
      <trkpt lat="44.92965" lon="5.41523">
        <ele>1143.8691921414</ele>
        <time>2021-07-14T14:06:33.990Z</time>
      </trkpt>
      <trkpt lat="44.92993" lon="5.41555">
        <ele>1145.2856548899</ele>
        <time>2021-07-14T14:06:35.318Z</time>
      </trkpt>
      <trkpt lat="44.93026" lon="5.41562">
        <ele>1146.1050955932</ele>
        <time>2021-07-14T14:06:36.653Z</time>
      </trkpt>
      <trkpt lat="44.93056" lon="5.41586">
        <ele>1146.7496163299</ele>
        <time>2021-07-14T14:06:37.995Z</time>
      </trkpt>
      <trkpt lat="44.93086" lon="5.41603">
        <ele>1146.9046082978</ele>
        <time>2021-07-14T14:06:39.344Z</time>
      </trkpt>
      <trkpt lat="44.93141" lon="5.4161">
        <ele>1146.5215234615</ele>
        <time>2021-07-14T14:06:40.704Z</time>
      </trkpt>
      <trkpt lat="44.93179" lon="5.41607">
        <ele>1145.6292673285</ele>
        <time>2021-07-14T14:06:42.071Z</time>
      </trkpt>
      <trkpt lat="44.93196" lon="5.41609">
        <ele>1144.2954539779</ele>
        <time>2021-07-14T14:06:43.442Z</time>
      </trkpt>
      <trkpt lat="44.93208" lon="5.4161">
        <ele>1140.4000372378</ele>
        <time>2021-07-14T14:06:46.186Z</time>
      </trkpt>
      <trkpt lat="44.93243" lon="5.41655">
        <ele>1137.6375684083</ele>
        <time>2021-07-14T14:06:47.569Z</time>
      </trkpt>
      <trkpt lat="44.93279" lon="5.41734">
        <ele>1134.3686232472</ele>
        <time>2021-07-14T14:06:48.965Z</time>
      </trkpt>
      <trkpt lat="44.9329" lon="5.41774">
        <ele>1130.6518394533</ele>
        <time>2021-07-14T14:06:50.367Z</time>
      </trkpt>
      <trkpt lat="44.93294" lon="5.41779">
        <ele>1126.8327679352</ele>
        <time>2021-07-14T14:06:51.770Z</time>
      </trkpt>
      <trkpt lat="44.93389" lon="5.41895">
        <ele>1121.7701335355</ele>
        <time>2021-07-14T14:06:53.198Z</time>
      </trkpt>
      <trkpt lat="44.93409" lon="5.41905">
        <ele>1117.1097600588</ele>
        <time>2021-07-14T14:06:54.630Z</time>
      </trkpt>
      <trkpt lat="44.93434" lon="5.41946">
        <ele>1112.1727325972</ele>
        <time>2021-07-14T14:06:56.070Z</time>
      </trkpt>
      <trkpt lat="44.93533" lon="5.41991">
        <ele>1106.137591327</ele>
        <time>2021-07-14T14:06:57.531Z</time>
      </trkpt>
      <trkpt lat="44.93514" lon="5.42052">
        <ele>1101.3227739296</ele>
        <time>2021-07-14T14:06:59.001Z</time>
      </trkpt>
      <trkpt lat="44.93538" lon="5.4205">
        <ele>1095.7006279499</ele>
        <time>2021-07-14T14:07:00.476Z</time>
      </trkpt>
      <trkpt lat="44.93567" lon="5.42082">
        <ele>1089.9338254428</ele>
        <time>2021-07-14T14:07:01.958Z</time>
      </trkpt>
      <trkpt lat="44.9365" lon="5.42106">
        <ele>1083.5341768663</ele>
        <time>2021-07-14T14:07:03.457Z</time>
      </trkpt>
      <trkpt lat="44.93697" lon="5.42093">
        <ele>1077.5951094491</ele>
        <time>2021-07-14T14:07:04.966Z</time>
      </trkpt>
      <trkpt lat="44.93858" lon="5.42104">
        <ele>1071.5219958386</ele>
        <time>2021-07-14T14:07:06.507Z</time>
      </trkpt>
      <trkpt lat="44.93875" lon="5.42102">
        <ele>1065.9898201915</ele>
        <time>2021-07-14T14:07:08.052Z</time>
      </trkpt>
      <trkpt lat="44.93889" lon="5.42122">
        <ele>1044.0255781563</ele>
        <time>2021-07-14T14:07:11.145Z</time>
      </trkpt>
      <trkpt lat="44.93892" lon="5.4214">
        <ele>1038.5276424635</ele>
        <time>2021-07-14T14:07:12.696Z</time>
      </trkpt>
      <trkpt lat="44.93895" lon="5.42198">
        <ele>1032.5671816712</ele>
        <time>2021-07-14T14:07:14.255Z</time>
      </trkpt>
      <trkpt lat="44.93891" lon="5.42221">
        <ele>1027.0181509748</ele>
        <time>2021-07-14T14:07:15.818Z</time>
      </trkpt>
      <trkpt lat="44.93881" lon="5.42247">
        <ele>1021.5922853258</ele>
        <time>2021-07-14T14:07:17.385Z</time>
      </trkpt>
      <trkpt lat="44.93882" lon="5.42261">
        <ele>1016.2519882766</ele>
        <time>2021-07-14T14:07:18.954Z</time>
      </trkpt>
      <trkpt lat="44.93877" lon="5.42276">
        <ele>1010.9725668429</ele>
        <time>2021-07-14T14:07:20.525Z</time>
      </trkpt>
      <trkpt lat="44.93871" lon="5.42292">
        <ele>1005.6027036298</ele>
        <time>2021-07-14T14:07:22.099Z</time>
      </trkpt>
      <trkpt lat="44.93855" lon="5.4231">
        <ele>1000.3222193237</ele>
        <time>2021-07-14T14:07:23.677Z</time>
      </trkpt>
      <trkpt lat="44.93848" lon="5.42325">
        <ele>994.98009761037</ele>
        <time>2021-07-14T14:07:25.258Z</time>
      </trkpt>
      <trkpt lat="44.93847" lon="5.42333">
        <ele>989.67280195676</ele>
        <time>2021-07-14T14:07:26.840Z</time>
      </trkpt>
      <trkpt lat="44.93843" lon="5.42353">
        <ele>984.19185344287</ele>
        <time>2021-07-14T14:07:28.425Z</time>
      </trkpt>
      <trkpt lat="44.93848" lon="5.42368">
        <ele>978.61380491335</ele>
        <time>2021-07-14T14:07:30.012Z</time>
      </trkpt>
      <trkpt lat="44.93847" lon="5.42379">
        <ele>973.04470557787</ele>
        <time>2021-07-14T14:07:31.601Z</time>
      </trkpt>
      <trkpt lat="44.93851" lon="5.42398">
        <ele>967.19645956819</ele>
        <time>2021-07-14T14:07:33.193Z</time>
      </trkpt>
      <trkpt lat="44.93845" lon="5.42435">
        <ele>961.08567909825</ele>
        <time>2021-07-14T14:07:34.790Z</time>
      </trkpt>
      <trkpt lat="44.93836" lon="5.42442">
        <ele>955.38975556873</ele>
        <time>2021-07-14T14:07:36.389Z</time>
      </trkpt>
      <trkpt lat="44.93832" lon="5.42456">
        <ele>949.46911841885</ele>
        <time>2021-07-14T14:07:37.990Z</time>
      </trkpt>
      <trkpt lat="44.93832" lon="5.42475">
        <ele>943.2870419026</ele>
        <time>2021-07-14T14:07:39.594Z</time>
      </trkpt>
      <trkpt lat="44.93828" lon="5.42491">
        <ele>937.14759140319</ele>
        <time>2021-07-14T14:07:41.200Z</time>
      </trkpt>
      <trkpt lat="44.93832" lon="5.42498">
        <ele>930.87922341161</ele>
        <time>2021-07-14T14:07:42.807Z</time>
      </trkpt>
      <trkpt lat="44.9385" lon="5.42509">
        <ele>924.16547332492</ele>
        <time>2021-07-14T14:07:44.418Z</time>
      </trkpt>
      <trkpt lat="44.93859" lon="5.42526">
        <ele>917.46171717161</ele>
        <time>2021-07-14T14:07:46.032Z</time>
      </trkpt>
      <trkpt lat="44.93858" lon="5.42535">
        <ele>911.0046679377</ele>
        <time>2021-07-14T14:07:47.648Z</time>
      </trkpt>
      <trkpt lat="44.93868" lon="5.42565">
        <ele>903.93162407318</ele>
        <time>2021-07-14T14:07:49.268Z</time>
      </trkpt>
      <trkpt lat="44.93886" lon="5.42583">
        <ele>897.05416763144</ele>
        <time>2021-07-14T14:07:50.893Z</time>
      </trkpt>
      <trkpt lat="44.93902" lon="5.42596">
        <ele>890.23065915481</ele>
        <time>2021-07-14T14:07:52.521Z</time>
      </trkpt>
      <trkpt lat="44.9395" lon="5.42614">
        <ele>883.68006913</ele>
        <time>2021-07-14T14:07:54.159Z</time>
      </trkpt>
      <trkpt lat="44.93971" lon="5.42636">
        <ele>876.9529483783</ele>
        <time>2021-07-14T14:07:55.803Z</time>
      </trkpt>
      <trkpt lat="44.93977" lon="5.42673">
        <ele>870.20595047844</ele>
        <time>2021-07-14T14:07:57.452Z</time>
      </trkpt>
      <trkpt lat="44.93978" lon="5.42684">
        <ele>864.08598117764</ele>
        <time>2021-07-14T14:07:59.103Z</time>
      </trkpt>
      <trkpt lat="44.93986" lon="5.42707">
        <ele>857.93206128603</ele>
        <time>2021-07-14T14:08:00.757Z</time>
      </trkpt>
      <trkpt lat="44.93976" lon="5.42741">
        <ele>852.0078256504</ele>
        <time>2021-07-14T14:08:02.417Z</time>
      </trkpt>
      <trkpt lat="44.93968" lon="5.42756">
        <ele>846.58146619155</ele>
        <time>2021-07-14T14:08:04.079Z</time>
      </trkpt>
      <trkpt lat="44.93961" lon="5.4279">
        <ele>841.24285676077</ele>
        <time>2021-07-14T14:08:05.746Z</time>
      </trkpt>
      <trkpt lat="44.93956" lon="5.42822">
        <ele>836.13303648826</ele>
        <time>2021-07-14T14:08:07.418Z</time>
      </trkpt>
      <trkpt lat="44.93956" lon="5.42849">
        <ele>831.40025496802</ele>
        <time>2021-07-14T14:08:09.094Z</time>
      </trkpt>
      <trkpt lat="44.93949" lon="5.42863">
        <ele>827.10262897923</ele>
        <time>2021-07-14T14:08:10.772Z</time>
      </trkpt>
      <trkpt lat="44.93932" lon="5.42882">
        <ele>823.11998346528</ele>
        <time>2021-07-14T14:08:12.455Z</time>
      </trkpt>
      <trkpt lat="44.93914" lon="5.42893">
        <ele>819.56778371069</ele>
        <time>2021-07-14T14:08:14.142Z</time>
      </trkpt>
      <trkpt lat="44.93871" lon="5.43049">
        <ele>815.47133624306</ele>
        <time>2021-07-14T14:08:15.852Z</time>
      </trkpt>
      <trkpt lat="44.93867" lon="5.43054">
        <ele>812.87248952757</ele>
        <time>2021-07-14T14:08:17.563Z</time>
      </trkpt>
      <trkpt lat="44.9386" lon="5.4306">
        <ele>810.70739021923</ele>
        <time>2021-07-14T14:08:19.276Z</time>
      </trkpt>
      <trkpt lat="44.93874" lon="5.43061">
        <ele>809.04434194913</ele>
        <time>2021-07-14T14:08:20.992Z</time>
      </trkpt>
      <trkpt lat="44.93915" lon="5.43064">
        <ele>807.00782656043</ele>
        <time>2021-07-14T14:08:24.432Z</time>
      </trkpt>
      <trkpt lat="44.93943" lon="5.43059">
        <ele>806.64213604927</ele>
        <time>2021-07-14T14:08:26.162Z</time>
      </trkpt>
      <trkpt lat="44.94071" lon="5.43042">
        <ele>806.97542827406</ele>
        <time>2021-07-14T14:08:27.918Z</time>
      </trkpt>
      <trkpt lat="44.9417" lon="5.43012">
        <ele>807.37106683446</ele>
        <time>2021-07-14T14:08:29.694Z</time>
      </trkpt>
      <trkpt lat="44.94231" lon="5.4299">
        <ele>809.43455901478</ele>
        <time>2021-07-14T14:08:33.258Z</time>
      </trkpt>
      <trkpt lat="44.94396" lon="5.42911">
        <ele>811.15144822069</ele>
        <time>2021-07-14T14:08:35.081Z</time>
      </trkpt>
      <trkpt lat="44.9443" lon="5.42906">
        <ele>812.8065699623</ele>
        <time>2021-07-14T14:08:36.911Z</time>
      </trkpt>
      <trkpt lat="44.94489" lon="5.4291">
        <ele>814.99926246003</ele>
        <time>2021-07-14T14:08:38.753Z</time>
      </trkpt>
      <trkpt lat="44.94596" lon="5.42918">
        <ele>817.34381749974</ele>
        <time>2021-07-14T14:08:40.616Z</time>
      </trkpt>
      <trkpt lat="44.94615" lon="5.4292">
        <ele>822.56957664301</ele>
        <time>2021-07-14T14:08:44.346Z</time>
      </trkpt>
      <trkpt lat="44.94871" lon="5.42938">
        <ele>828.86225274483</ele>
        <time>2021-07-14T14:08:48.131Z</time>
      </trkpt>
      <trkpt lat="44.94931" lon="5.42943">
        <ele>831.94550638473</ele>
        <time>2021-07-14T14:08:50.061Z</time>
      </trkpt>
      <trkpt lat="44.94978" lon="5.42962">
        <ele>835.03106728341</ele>
        <time>2021-07-14T14:08:52.001Z</time>
      </trkpt>
      <trkpt lat="44.95001" lon="5.42964">
        <ele>838.12487268301</ele>
        <time>2021-07-14T14:08:53.946Z</time>
      </trkpt>
      <trkpt lat="44.95009" lon="5.42965">
        <ele>847.26215637256</ele>
        <time>2021-07-14T14:08:57.837Z</time>
      </trkpt>
      <trkpt lat="44.95055" lon="5.42967">
        <ele>850.30862888004</ele>
        <time>2021-07-14T14:08:59.793Z</time>
      </trkpt>
      <trkpt lat="44.95084" lon="5.42961">
        <ele>853.2807826803</ele>
        <time>2021-07-14T14:09:01.754Z</time>
      </trkpt>
      <trkpt lat="44.95117" lon="5.42938">
        <ele>856.25896869258</ele>
        <time>2021-07-14T14:09:03.723Z</time>
      </trkpt>
      <trkpt lat="44.95153" lon="5.42903">
        <ele>859.13745580454</ele>
        <time>2021-07-14T14:09:05.701Z</time>
      </trkpt>
      <trkpt lat="44.9518" lon="5.42884">
        <ele>861.79515488265</ele>
        <time>2021-07-14T14:09:07.684Z</time>
      </trkpt>
      <trkpt lat="44.95262" lon="5.42857">
        <ele>864.51625831511</ele>
        <time>2021-07-14T14:09:09.684Z</time>
      </trkpt>
      <trkpt lat="44.95265" lon="5.42853">
        <ele>866.7927095782</ele>
        <time>2021-07-14T14:09:11.685Z</time>
      </trkpt>
      <trkpt lat="44.95289" lon="5.42823">
        <ele>870.96794240114</ele>
        <time>2021-07-14T14:09:15.694Z</time>
      </trkpt>
      <trkpt lat="44.95337" lon="5.42743">
        <ele>872.66130669954</ele>
        <time>2021-07-14T14:09:17.717Z</time>
      </trkpt>
      <trkpt lat="44.95348" lon="5.42725">
        <ele>874.18976288819</ele>
        <time>2021-07-14T14:09:19.743Z</time>
      </trkpt>
      <trkpt lat="44.95384" lon="5.42665">
        <ele>875.62941933742</ele>
        <time>2021-07-14T14:09:21.780Z</time>
      </trkpt>
      <trkpt lat="44.9541" lon="5.42633">
        <ele>876.85619855801</ele>
        <time>2021-07-14T14:09:23.824Z</time>
      </trkpt>
      <trkpt lat="44.95434" lon="5.42612">
        <ele>877.7918455595</ele>
        <time>2021-07-14T14:09:25.874Z</time>
      </trkpt>
      <trkpt lat="44.95466" lon="5.4259">
        <ele>878.55819583862</ele>
        <time>2021-07-14T14:09:27.931Z</time>
      </trkpt>
      <trkpt lat="44.95496" lon="5.4257">
        <ele>879.52551681107</ele>
        <time>2021-07-14T14:09:32.051Z</time>
      </trkpt>
      <trkpt lat="44.95569" lon="5.42531">
        <ele>879.64844262021</ele>
        <time>2021-07-14T14:09:34.130Z</time>
      </trkpt>
      <trkpt lat="44.95611" lon="5.42506">
        <ele>879.56778216336</ele>
        <time>2021-07-14T14:09:36.218Z</time>
      </trkpt>
      <trkpt lat="44.95614" lon="5.42505">
        <ele>879.01765749237</ele>
        <time>2021-07-14T14:09:40.395Z</time>
      </trkpt>
      <trkpt lat="44.95646" lon="5.42475">
        <ele>878.41702092923</ele>
        <time>2021-07-14T14:09:42.491Z</time>
      </trkpt>
      <trkpt lat="44.9569" lon="5.42406">
        <ele>877.66952334614</ele>
        <time>2021-07-14T14:09:44.601Z</time>
      </trkpt>
      <trkpt lat="44.9571" lon="5.42381">
        <ele>876.99592671076</ele>
        <time>2021-07-14T14:09:46.716Z</time>
      </trkpt>
      <trkpt lat="44.9574" lon="5.42361">
        <ele>876.15565786299</ele>
        <time>2021-07-14T14:09:48.837Z</time>
      </trkpt>
      <trkpt lat="44.95822" lon="5.42315">
        <ele>875.26941909679</ele>
        <time>2021-07-14T14:09:50.976Z</time>
      </trkpt>
      <trkpt lat="44.95868" lon="5.4229">
        <ele>873.51399655608</ele>
        <time>2021-07-14T14:09:55.264Z</time>
      </trkpt>
      <trkpt lat="44.95921" lon="5.42325">
        <ele>872.69029107023</ele>
        <time>2021-07-14T14:09:57.425Z</time>
      </trkpt>
      <trkpt lat="44.95934" lon="5.42359">
        <ele>871.68807952313</ele>
        <time>2021-07-14T14:09:59.591Z</time>
      </trkpt>
      <trkpt lat="44.95941" lon="5.42417">
        <ele>870.682250173</ele>
        <time>2021-07-14T14:10:01.766Z</time>
      </trkpt>
      <trkpt lat="44.95993" lon="5.42495">
        <ele>869.74438393997</ele>
        <time>2021-07-14T14:10:03.956Z</time>
      </trkpt>
      <trkpt lat="44.96019" lon="5.4251">
        <ele>868.96173205577</ele>
        <time>2021-07-14T14:10:06.151Z</time>
      </trkpt>
      <trkpt lat="44.96047" lon="5.42507">
        <ele>868.26001876055</ele>
        <time>2021-07-14T14:10:08.352Z</time>
      </trkpt>
      <trkpt lat="44.96068" lon="5.42515">
        <ele>867.57722638303</ele>
        <time>2021-07-14T14:10:10.557Z</time>
      </trkpt>
      <trkpt lat="44.96086" lon="5.42523">
        <ele>866.50027632483</ele>
        <time>2021-07-14T14:10:14.971Z</time>
      </trkpt>
      <trkpt lat="44.96113" lon="5.42527">
        <ele>866.15460697212</ele>
        <time>2021-07-14T14:10:17.186Z</time>
      </trkpt>
      <trkpt lat="44.96146" lon="5.42534">
        <ele>865.65973356856</ele>
        <time>2021-07-14T14:10:21.622Z</time>
      </trkpt>
      <trkpt lat="44.96228" lon="5.42616">
        <ele>865.59397850451</ele>
        <time>2021-07-14T14:10:23.863Z</time>
      </trkpt>
      <trkpt lat="44.96274" lon="5.4265">
        <ele>865.61510251023</ele>
        <time>2021-07-14T14:10:26.115Z</time>
      </trkpt>
      <trkpt lat="44.96304" lon="5.42653">
        <ele>865.55782794224</ele>
        <time>2021-07-14T14:10:28.373Z</time>
      </trkpt>
      <trkpt lat="44.96323" lon="5.42652">
        <ele>865.58911473987</ele>
        <time>2021-07-14T14:10:30.635Z</time>
      </trkpt>
      <trkpt lat="44.96344" lon="5.42646">
        <ele>865.72882610897</ele>
        <time>2021-07-14T14:10:32.901Z</time>
      </trkpt>
      <trkpt lat="44.96364" lon="5.42644">
        <ele>866.03191302382</ele>
        <time>2021-07-14T14:10:35.171Z</time>
      </trkpt>
      <trkpt lat="44.96379" lon="5.42647">
        <ele>866.44462821938</ele>
        <time>2021-07-14T14:10:37.444Z</time>
      </trkpt>
      <trkpt lat="44.96674" lon="5.42822">
        <ele>867.83598980165</ele>
        <time>2021-07-14T14:10:42.054Z</time>
      </trkpt>
      <trkpt lat="44.9668" lon="5.4283">
        <ele>868.48497044222</ele>
        <time>2021-07-14T14:10:44.393Z</time>
      </trkpt>
      <trkpt lat="44.96686" lon="5.42858">
        <ele>869.16701109144</ele>
        <time>2021-07-14T14:10:46.736Z</time>
      </trkpt>
      <trkpt lat="44.96706" lon="5.42884">
        <ele>869.90847194682</ele>
        <time>2021-07-14T14:10:49.084Z</time>
      </trkpt>
      <trkpt lat="44.96716" lon="5.42891">
        <ele>870.70462396207</ele>
        <time>2021-07-14T14:10:51.434Z</time>
      </trkpt>
      <trkpt lat="44.96732" lon="5.42901">
        <ele>872.44240783152</ele>
        <time>2021-07-14T14:10:56.138Z</time>
      </trkpt>
      <trkpt lat="44.96767" lon="5.42907">
        <ele>873.36025952387</ele>
        <time>2021-07-14T14:10:58.499Z</time>
      </trkpt>
      <trkpt lat="44.96802" lon="5.42897">
        <ele>874.30937531813</ele>
        <time>2021-07-14T14:11:00.867Z</time>
      </trkpt>
      <trkpt lat="44.96809" lon="5.42901">
        <ele>875.30646032311</ele>
        <time>2021-07-14T14:11:03.237Z</time>
      </trkpt>
      <trkpt lat="44.96811" lon="5.42896">
        <ele>876.31071936883</ele>
        <time>2021-07-14T14:11:05.607Z</time>
      </trkpt>
      <trkpt lat="44.96852" lon="5.42884">
        <ele>877.43782723061</ele>
        <time>2021-07-14T14:11:07.986Z</time>
      </trkpt>
      <trkpt lat="44.96856" lon="5.42881">
        <ele>878.50698127424</ele>
        <time>2021-07-14T14:11:10.366Z</time>
      </trkpt>
      <trkpt lat="44.9686" lon="5.42878">
        <ele>880.6338596503</ele>
        <time>2021-07-14T14:11:15.126Z</time>
      </trkpt>
      <trkpt lat="44.96903" lon="5.42906">
        <ele>881.82274726243</ele>
        <time>2021-07-14T14:11:17.516Z</time>
      </trkpt>
      <trkpt lat="44.96926" lon="5.42901">
        <ele>882.81659867259</ele>
        <time>2021-07-14T14:11:19.911Z</time>
      </trkpt>
      <trkpt lat="44.97055" lon="5.42897">
        <ele>883.79545163038</ele>
        <time>2021-07-14T14:11:22.331Z</time>
      </trkpt>
      <trkpt lat="44.97116" lon="5.42917">
        <ele>884.8696065552</ele>
        <time>2021-07-14T14:11:24.764Z</time>
      </trkpt>
      <trkpt lat="44.97175" lon="5.42958">
        <ele>885.79113575196</ele>
        <time>2021-07-14T14:11:27.210Z</time>
      </trkpt>
      <trkpt lat="44.97236" lon="5.42979">
        <ele>886.7398770657</ele>
        <time>2021-07-14T14:11:29.669Z</time>
      </trkpt>
      <trkpt lat="44.97261" lon="5.42981">
        <ele>887.40296237182</ele>
        <time>2021-07-14T14:11:32.133Z</time>
      </trkpt>
      <trkpt lat="44.97272" lon="5.42989">
        <ele>888.0330390825</ele>
        <time>2021-07-14T14:11:34.599Z</time>
      </trkpt>
      <trkpt lat="44.973" lon="5.43009">
        <ele>888.57989062631</ele>
        <time>2021-07-14T14:11:37.071Z</time>
      </trkpt>
      <trkpt lat="44.97349" lon="5.4302">
        <ele>889.06337072059</ele>
        <time>2021-07-14T14:11:39.553Z</time>
      </trkpt>
      <trkpt lat="44.97382" lon="5.43021">
        <ele>889.46492029993</ele>
        <time>2021-07-14T14:11:42.042Z</time>
      </trkpt>
      <trkpt lat="44.97433" lon="5.43054">
        <ele>889.49054233048</ele>
        <time>2021-07-14T14:11:44.542Z</time>
      </trkpt>
      <trkpt lat="44.97553" lon="5.43138">
        <ele>889.7005212557</ele>
        <time>2021-07-14T14:11:47.069Z</time>
      </trkpt>
      <trkpt lat="44.97579" lon="5.43139">
        <ele>889.58747174844</ele>
        <time>2021-07-14T14:11:49.601Z</time>
      </trkpt>
      <trkpt lat="44.97628" lon="5.43159">
        <ele>889.21734123186</ele>
        <time>2021-07-14T14:11:52.143Z</time>
      </trkpt>
      <trkpt lat="44.97682" lon="5.4318">
        <ele>887.95557501832</ele>
        <time>2021-07-14T14:11:57.239Z</time>
      </trkpt>
      <trkpt lat="44.9771" lon="5.43191">
        <ele>886.35948010818</ele>
        <time>2021-07-14T14:12:02.353Z</time>
      </trkpt>
      <trkpt lat="44.97763" lon="5.43221">
        <ele>885.06079706428</ele>
        <time>2021-07-14T14:12:04.924Z</time>
      </trkpt>
      <trkpt lat="44.97891" lon="5.43255">
        <ele>883.45246361952</ele>
        <time>2021-07-14T14:12:07.521Z</time>
      </trkpt>
      <trkpt lat="44.97958" lon="5.43277">
        <ele>881.90674805626</ele>
        <time>2021-07-14T14:12:10.132Z</time>
      </trkpt>
      <trkpt lat="44.98059" lon="5.43301">
        <ele>879.99457958024</ele>
        <time>2021-07-14T14:12:12.763Z</time>
      </trkpt>
      <trkpt lat="44.98077" lon="5.43315">
        <ele>878.13594033133</ele>
        <time>2021-07-14T14:12:15.398Z</time>
      </trkpt>
      <trkpt lat="44.98166" lon="5.4335">
        <ele>875.94652970011</ele>
        <time>2021-07-14T14:12:18.052Z</time>
      </trkpt>
      <trkpt lat="44.98314" lon="5.4337">
        <ele>873.96582643287</ele>
        <time>2021-07-14T14:12:20.736Z</time>
      </trkpt>
      <trkpt lat="44.98367" lon="5.4336">
        <ele>872.17031972236</ele>
        <time>2021-07-14T14:12:23.430Z</time>
      </trkpt>
      <trkpt lat="44.98416" lon="5.43365">
        <ele>869.87886372813</ele>
        <time>2021-07-14T14:12:26.134Z</time>
      </trkpt>
      <trkpt lat="44.98453" lon="5.43358">
        <ele>867.5118286315</ele>
        <time>2021-07-14T14:12:28.846Z</time>
      </trkpt>
      <trkpt lat="44.98508" lon="5.43379">
        <ele>865.0059750558</ele>
        <time>2021-07-14T14:12:31.569Z</time>
      </trkpt>
      <trkpt lat="44.98572" lon="5.43392">
        <ele>862.61965001936</ele>
        <time>2021-07-14T14:12:34.305Z</time>
      </trkpt>
      <trkpt lat="44.98676" lon="5.43404">
        <ele>859.35045844325</ele>
        <time>2021-07-14T14:12:37.062Z</time>
      </trkpt>
      <trkpt lat="44.98718" lon="5.43397">
        <ele>856.43287011695</ele>
        <time>2021-07-14T14:12:39.827Z</time>
      </trkpt>
      <trkpt lat="44.98751" lon="5.43409">
        <ele>853.23811097522</ele>
        <time>2021-07-14T14:12:42.599Z</time>
      </trkpt>
      <trkpt lat="44.98779" lon="5.43424">
        <ele>850.05352935014</ele>
        <time>2021-07-14T14:12:45.377Z</time>
      </trkpt>
      <trkpt lat="44.98817" lon="5.43432">
        <ele>846.90838322487</ele>
        <time>2021-07-14T14:12:48.163Z</time>
      </trkpt>
      <trkpt lat="44.98843" lon="5.43434">
        <ele>843.76242534234</ele>
        <time>2021-07-14T14:12:50.954Z</time>
      </trkpt>
      <trkpt lat="44.98894" lon="5.43454">
        <ele>840.26754633688</ele>
        <time>2021-07-14T14:12:53.756Z</time>
      </trkpt>
      <trkpt lat="44.98937" lon="5.43447">
        <ele>836.87433898318</ele>
        <time>2021-07-14T14:12:56.566Z</time>
      </trkpt>
      <trkpt lat="44.98985" lon="5.4347">
        <ele>833.45624909283</ele>
        <time>2021-07-14T14:12:59.386Z</time>
      </trkpt>
      <trkpt lat="44.99041" lon="5.43463">
        <ele>829.8534896061</ele>
        <time>2021-07-14T14:13:02.218Z</time>
      </trkpt>
      <trkpt lat="44.99061" lon="5.43454">
        <ele>826.21413147238</ele>
        <time>2021-07-14T14:13:05.054Z</time>
      </trkpt>
      <trkpt lat="44.99107" lon="5.43443">
        <ele>822.3672864466</ele>
        <time>2021-07-14T14:13:07.899Z</time>
      </trkpt>
      <trkpt lat="44.99128" lon="5.43448">
        <ele>818.58181889402</ele>
        <time>2021-07-14T14:13:10.748Z</time>
      </trkpt>
      <trkpt lat="44.9914" lon="5.43445">
        <ele>814.84286684371</ele>
        <time>2021-07-14T14:13:13.600Z</time>
      </trkpt>
      <trkpt lat="44.99188" lon="5.43454">
        <ele>810.85357765761</ele>
        <time>2021-07-14T14:13:16.462Z</time>
      </trkpt>
      <trkpt lat="44.9919" lon="5.43455">
        <ele>807.18984281932</ele>
        <time>2021-07-14T14:13:19.324Z</time>
      </trkpt>
      <trkpt lat="44.9922" lon="5.43467">
        <ele>799.60878715548</ele>
        <time>2021-07-14T14:13:25.054Z</time>
      </trkpt>
      <trkpt lat="44.99251" lon="5.43484">
        <ele>795.65804666245</ele>
        <time>2021-07-14T14:13:27.929Z</time>
      </trkpt>
      <trkpt lat="44.99275" lon="5.43487">
        <ele>791.76478925511</ele>
        <time>2021-07-14T14:13:30.809Z</time>
      </trkpt>
      <trkpt lat="44.99296" lon="5.43497">
        <ele>787.95160335668</ele>
        <time>2021-07-14T14:13:33.693Z</time>
      </trkpt>
      <trkpt lat="44.99317" lon="5.43487">
        <ele>784.32758109932</ele>
        <time>2021-07-14T14:13:36.581Z</time>
      </trkpt>
      <trkpt lat="44.99337" lon="5.43494">
        <ele>780.60761504981</ele>
        <time>2021-07-14T14:13:39.474Z</time>
      </trkpt>
      <trkpt lat="44.99355" lon="5.43495">
        <ele>777.01927216905</ele>
        <time>2021-07-14T14:13:42.370Z</time>
      </trkpt>
      <trkpt lat="44.994" lon="5.43522">
        <ele>773.35541076895</ele>
        <time>2021-07-14T14:13:45.276Z</time>
      </trkpt>
      <trkpt lat="44.99449" lon="5.43559">
        <ele>769.50560565756</ele>
        <time>2021-07-14T14:13:48.193Z</time>
      </trkpt>
      <trkpt lat="44.99469" lon="5.43579">
        <ele>765.91171809347</ele>
        <time>2021-07-14T14:13:51.115Z</time>
      </trkpt>
      <trkpt lat="44.99489" lon="5.43586">
        <ele>762.52131572761</ele>
        <time>2021-07-14T14:13:54.041Z</time>
      </trkpt>
      <trkpt lat="44.99539" lon="5.43584">
        <ele>759.16017037763</ele>
        <time>2021-07-14T14:13:56.977Z</time>
      </trkpt>
      <trkpt lat="44.99548" lon="5.43586">
        <ele>756.21022601347</ele>
        <time>2021-07-14T14:13:59.915Z</time>
      </trkpt>
      <trkpt lat="44.99579" lon="5.43603">
        <ele>753.36885146645</ele>
        <time>2021-07-14T14:14:02.860Z</time>
      </trkpt>
      <trkpt lat="44.99593" lon="5.43604">
        <ele>750.55861210142</ele>
        <time>2021-07-14T14:14:05.808Z</time>
      </trkpt>
      <trkpt lat="44.99624" lon="5.43597">
        <ele>747.80466143913</ele>
        <time>2021-07-14T14:14:08.762Z</time>
      </trkpt>
      <trkpt lat="44.99638" lon="5.43607">
        <ele>745.1183604138</ele>
        <time>2021-07-14T14:14:11.719Z</time>
      </trkpt>
      <trkpt lat="44.99655" lon="5.43603">
        <ele>742.53548362742</ele>
        <time>2021-07-14T14:14:14.679Z</time>
      </trkpt>
      <trkpt lat="44.99663" lon="5.43596">
        <ele>740.03800216548</ele>
        <time>2021-07-14T14:14:17.641Z</time>
      </trkpt>
      <trkpt lat="44.99706" lon="5.43591">
        <ele>737.54113322371</ele>
        <time>2021-07-14T14:14:20.612Z</time>
      </trkpt>
      <trkpt lat="44.99747" lon="5.43574">
        <ele>735.0830734958</ele>
        <time>2021-07-14T14:14:23.591Z</time>
      </trkpt>
      <trkpt lat="44.99776" lon="5.43551">
        <ele>732.50905090175</ele>
        <time>2021-07-14T14:14:26.577Z</time>
      </trkpt>
      <trkpt lat="44.99782" lon="5.43529">
        <ele>729.96457608088</ele>
        <time>2021-07-14T14:14:29.566Z</time>
      </trkpt>
      <trkpt lat="44.99795" lon="5.43515">
        <ele>727.38696721616</ele>
        <time>2021-07-14T14:14:32.559Z</time>
      </trkpt>
      <trkpt lat="44.99825" lon="5.43522">
        <ele>724.81645661949</ele>
        <time>2021-07-14T14:14:35.558Z</time>
      </trkpt>
      <trkpt lat="44.99856" lon="5.43522">
        <ele>722.22063201121</ele>
        <time>2021-07-14T14:14:38.563Z</time>
      </trkpt>
      <trkpt lat="44.99884" lon="5.43517">
        <ele>719.57085811389</ele>
        <time>2021-07-14T14:14:41.574Z</time>
      </trkpt>
      <trkpt lat="44.99899" lon="5.43521">
        <ele>717.02166371989</ele>
        <time>2021-07-14T14:14:44.588Z</time>
      </trkpt>
      <trkpt lat="44.99916" lon="5.43536">
        <ele>714.58497419181</ele>
        <time>2021-07-14T14:14:47.606Z</time>
      </trkpt>
      <trkpt lat="44.99935" lon="5.43565">
        <ele>712.22676604537</ele>
        <time>2021-07-14T14:14:50.629Z</time>
      </trkpt>
      <trkpt lat="44.99988" lon="5.43599">
        <ele>708.99559728204</ele>
        <time>2021-07-14T14:14:53.664Z</time>
      </trkpt>
      <trkpt lat="45.00001" lon="5.43604">
        <ele>706.6662261291</ele>
        <time>2021-07-14T14:14:56.701Z</time>
      </trkpt>
      <trkpt lat="45.00029" lon="5.43615">
        <ele>701.84801666588</ele>
        <time>2021-07-14T14:15:02.781Z</time>
      </trkpt>
      <trkpt lat="45.00045" lon="5.43609">
        <ele>699.40238650402</ele>
        <time>2021-07-14T14:15:05.828Z</time>
      </trkpt>
      <trkpt lat="45.00063" lon="5.4358">
        <ele>697.02330822646</ele>
        <time>2021-07-14T14:15:08.880Z</time>
      </trkpt>
      <trkpt lat="45.00071" lon="5.43557">
        <ele>694.97967922975</ele>
        <time>2021-07-14T14:15:11.936Z</time>
      </trkpt>
      <trkpt lat="45.00077" lon="5.43557">
        <ele>693.30342504603</ele>
        <time>2021-07-14T14:15:14.993Z</time>
      </trkpt>
      <trkpt lat="45.00083" lon="5.43571">
        <ele>691.83244498041</ele>
        <time>2021-07-14T14:15:18.052Z</time>
      </trkpt>
      <trkpt lat="45.0008" lon="5.43554">
        <ele>690.47609318838</ele>
        <time>2021-07-14T14:15:21.114Z</time>
      </trkpt>
      <trkpt lat="45.00083" lon="5.43571">
        <ele>688.40137040355</ele>
        <time>2021-07-14T14:15:27.240Z</time>
      </trkpt>
      <trkpt lat="45.00088" lon="5.43576">
        <ele>687.61858901406</ele>
        <time>2021-07-14T14:15:30.305Z</time>
      </trkpt>
      <trkpt lat="45.00108" lon="5.43584">
        <ele>687.0534494989</ele>
        <time>2021-07-14T14:15:33.375Z</time>
      </trkpt>
      <trkpt lat="45.00135" lon="5.4359">
        <ele>686.77340718795</ele>
        <time>2021-07-14T14:15:36.450Z</time>
      </trkpt>
      <trkpt lat="45.00158" lon="5.43613">
        <ele>686.60854911258</ele>
        <time>2021-07-14T14:15:39.531Z</time>
      </trkpt>
      <trkpt lat="45.00165" lon="5.43609">
        <ele>686.6343331014</ele>
        <time>2021-07-14T14:15:42.613Z</time>
      </trkpt>
      <trkpt lat="45.00169" lon="5.43613">
        <ele>686.71955842067</ele>
        <time>2021-07-14T14:15:45.696Z</time>
      </trkpt>
      <trkpt lat="45.00174" lon="5.43618">
        <ele>687.32915657628</ele>
        <time>2021-07-14T14:15:51.863Z</time>
      </trkpt>
      <trkpt lat="45.00237" lon="5.43653">
        <ele>687.88644607234</ele>
        <time>2021-07-14T14:15:54.961Z</time>
      </trkpt>
      <trkpt lat="45.0026" lon="5.43662">
        <ele>688.4613597692</ele>
        <time>2021-07-14T14:15:58.064Z</time>
      </trkpt>
      <trkpt lat="45.00282" lon="5.43671">
        <ele>689.20945442265</ele>
        <time>2021-07-14T14:16:01.171Z</time>
      </trkpt>
      <trkpt lat="45.00305" lon="5.43684">
        <ele>690.11873909896</ele>
        <time>2021-07-14T14:16:04.283Z</time>
      </trkpt>
      <trkpt lat="45.00314" lon="5.43693">
        <ele>691.13904264772</ele>
        <time>2021-07-14T14:16:07.398Z</time>
      </trkpt>
      <trkpt lat="45.00328" lon="5.43726">
        <ele>692.16144356619</ele>
        <time>2021-07-14T14:16:10.518Z</time>
      </trkpt>
      <trkpt lat="45.00329" lon="5.43747">
        <ele>693.33380083515</ele>
        <time>2021-07-14T14:16:13.641Z</time>
      </trkpt>
      <trkpt lat="45.00326" lon="5.43795">
        <ele>694.60846014263</ele>
        <time>2021-07-14T14:16:16.771Z</time>
      </trkpt>
      <trkpt lat="45.00303" lon="5.44019">
        <ele>696.92850026277</ele>
        <time>2021-07-14T14:16:19.933Z</time>
      </trkpt>
      <trkpt lat="45.00305" lon="5.44035">
        <ele>698.47319474106</ele>
        <time>2021-07-14T14:16:23.097Z</time>
      </trkpt>
      <trkpt lat="45.0031" lon="5.4405">
        <ele>700.04439661403</ele>
        <time>2021-07-14T14:16:26.264Z</time>
      </trkpt>
      <trkpt lat="45.00359" lon="5.44119">
        <ele>701.60251997864</ele>
        <time>2021-07-14T14:16:29.445Z</time>
      </trkpt>
      <trkpt lat="45.00368" lon="5.44126">
        <ele>703.32667154533</ele>
        <time>2021-07-14T14:16:32.628Z</time>
      </trkpt>
      <trkpt lat="45.00378" lon="5.44132">
        <ele>705.09879377846</ele>
        <time>2021-07-14T14:16:35.813Z</time>
      </trkpt>
      <trkpt lat="45.00398" lon="5.44139">
        <ele>706.97748305364</ele>
        <time>2021-07-14T14:16:39.002Z</time>
      </trkpt>
      <trkpt lat="45.00428" lon="5.44144">
        <ele>708.94612173317</ele>
        <time>2021-07-14T14:16:42.197Z</time>
      </trkpt>
      <trkpt lat="45.00451" lon="5.44142">
        <ele>710.93292185725</ele>
        <time>2021-07-14T14:16:45.396Z</time>
      </trkpt>
      <trkpt lat="45.0045" lon="5.44137">
        <ele>712.72598152278</ele>
        <time>2021-07-14T14:16:48.596Z</time>
      </trkpt>
      <trkpt lat="45.00492" lon="5.44101">
        <ele>714.975443738</ele>
        <time>2021-07-14T14:16:51.806Z</time>
      </trkpt>
      <trkpt lat="45.00556" lon="5.44091">
        <ele>716.93234764387</ele>
        <time>2021-07-14T14:16:55.029Z</time>
      </trkpt>
      <trkpt lat="45.0062" lon="5.44059">
        <ele>718.59214812177</ele>
        <time>2021-07-14T14:16:58.266Z</time>
      </trkpt>
      <trkpt lat="45.00683" lon="5.44032">
        <ele>720.62519331978</ele>
        <time>2021-07-14T14:17:01.516Z</time>
      </trkpt>
      <trkpt lat="45.00687" lon="5.44029">
        <ele>722.18925213092</ele>
        <time>2021-07-14T14:17:04.767Z</time>
      </trkpt>
      <trkpt lat="45.0074" lon="5.4402">
        <ele>724.17589414984</ele>
        <time>2021-07-14T14:17:08.028Z</time>
      </trkpt>
      <trkpt lat="45.00763" lon="5.44027">
        <ele>725.52045504114</ele>
        <time>2021-07-14T14:17:11.294Z</time>
      </trkpt>
      <trkpt lat="45.00784" lon="5.44051">
        <ele>726.44540445654</ele>
        <time>2021-07-14T14:17:14.565Z</time>
      </trkpt>
      <trkpt lat="45.00819" lon="5.44073">
        <ele>727.48607070808</ele>
        <time>2021-07-14T14:17:17.844Z</time>
      </trkpt>
      <trkpt lat="45.0082" lon="5.44094">
        <ele>728.31412243791</ele>
        <time>2021-07-14T14:17:21.126Z</time>
      </trkpt>
      <trkpt lat="45.008" lon="5.44145">
        <ele>728.89805709006</ele>
        <time>2021-07-14T14:17:24.416Z</time>
      </trkpt>
      <trkpt lat="45.00835" lon="5.44145">
        <ele>730.00808611378</ele>
        <time>2021-07-14T14:17:27.713Z</time>
      </trkpt>
      <trkpt lat="45.00871" lon="5.44127">
        <ele>730.94886251819</ele>
        <time>2021-07-14T14:17:31.018Z</time>
      </trkpt>
      <trkpt lat="45.00896" lon="5.44124">
        <ele>731.81594439902</ele>
        <time>2021-07-14T14:17:34.328Z</time>
      </trkpt>
      <trkpt lat="45.00925" lon="5.44125">
        <ele>732.64836880488</ele>
        <time>2021-07-14T14:17:37.644Z</time>
      </trkpt>
      <trkpt lat="45.0094" lon="5.4413">
        <ele>733.46422928522</ele>
        <time>2021-07-14T14:17:40.963Z</time>
      </trkpt>
      <trkpt lat="45.00947" lon="5.44141">
        <ele>734.28461982406</ele>
        <time>2021-07-14T14:17:44.284Z</time>
      </trkpt>
      <trkpt lat="45.00953" lon="5.44142">
        <ele>735.1531004375</ele>
        <time>2021-07-14T14:17:47.606Z</time>
      </trkpt>
      <trkpt lat="45.00957" lon="5.44144">
        <ele>736.06786828376</ele>
        <time>2021-07-14T14:17:50.929Z</time>
      </trkpt>
      <trkpt lat="45.00976" lon="5.44135">
        <ele>737.0273575375</ele>
        <time>2021-07-14T14:17:54.256Z</time>
      </trkpt>
      <trkpt lat="45.00984" lon="5.44129">
        <ele>738.08254554977</ele>
        <time>2021-07-14T14:17:57.585Z</time>
      </trkpt>
      <trkpt lat="45.01" lon="5.44123">
        <ele>739.29949866527</ele>
        <time>2021-07-14T14:18:00.917Z</time>
      </trkpt>
      <trkpt lat="45.01025" lon="5.44118">
        <ele>740.7036794656</ele>
        <time>2021-07-14T14:18:04.254Z</time>
      </trkpt>
      <trkpt lat="45.01071" lon="5.44104">
        <ele>742.43904813109</ele>
        <time>2021-07-14T14:18:07.600Z</time>
      </trkpt>
      <trkpt lat="45.0108" lon="5.44101">
        <ele>743.99412516182</ele>
        <time>2021-07-14T14:18:10.948Z</time>
      </trkpt>
      <trkpt lat="45.01146" lon="5.44106">
        <ele>745.67200723203</ele>
        <time>2021-07-14T14:18:14.309Z</time>
      </trkpt>
      <trkpt lat="45.01182" lon="5.44098">
        <ele>747.40578357403</ele>
        <time>2021-07-14T14:18:17.678Z</time>
      </trkpt>
      <trkpt lat="45.01183" lon="5.44084">
        <ele>756.00316737509</ele>
        <time>2021-07-14T14:18:21.049Z</time>
      </trkpt>
      <trkpt lat="45.01188" lon="5.4407">
        <ele>758.57352884707</ele>
        <time>2021-07-14T14:18:24.422Z</time>
      </trkpt>
      <trkpt lat="45.01219" lon="5.44038">
        <ele>761.46643091125</ele>
        <time>2021-07-14T14:18:27.803Z</time>
      </trkpt>
      <trkpt lat="45.01221" lon="5.4403">
        <ele>764.29047083018</ele>
        <time>2021-07-14T14:18:31.185Z</time>
      </trkpt>
      <trkpt lat="45.01221" lon="5.4402">
        <ele>767.27057859379</ele>
        <time>2021-07-14T14:18:34.568Z</time>
      </trkpt>
      <trkpt lat="45.01198" lon="5.43913">
        <ele>771.12225071149</ele>
        <time>2021-07-14T14:18:37.967Z</time>
      </trkpt>
      <trkpt lat="45.01197" lon="5.43892">
        <ele>774.55901890319</ele>
        <time>2021-07-14T14:18:41.369Z</time>
      </trkpt>
      <trkpt lat="45.01202" lon="5.43868">
        <ele>778.13951984443</ele>
        <time>2021-07-14T14:18:44.775Z</time>
      </trkpt>
      <trkpt lat="45.01232" lon="5.43787">
        <ele>782.22793978191</ele>
        <time>2021-07-14T14:18:48.194Z</time>
      </trkpt>
      <trkpt lat="45.01246" lon="5.43736">
        <ele>785.89493839217</ele>
        <time>2021-07-14T14:18:51.620Z</time>
      </trkpt>
      <trkpt lat="45.01249" lon="5.43703">
        <ele>789.36137967479</ele>
        <time>2021-07-14T14:18:55.051Z</time>
      </trkpt>
      <trkpt lat="45.01248" lon="5.43645">
        <ele>792.44913162867</ele>
        <time>2021-07-14T14:18:58.490Z</time>
      </trkpt>
      <trkpt lat="45.01261" lon="5.4362">
        <ele>795.63097685773</ele>
        <time>2021-07-14T14:19:01.934Z</time>
      </trkpt>
      <trkpt lat="45.01297" lon="5.43588">
        <ele>798.88647877233</ele>
        <time>2021-07-14T14:19:05.386Z</time>
      </trkpt>
      <trkpt lat="45.01308" lon="5.43584">
        <ele>802.09765051952</ele>
        <time>2021-07-14T14:19:08.841Z</time>
      </trkpt>
      <trkpt lat="45.01323" lon="5.43572">
        <ele>805.32099485166</ele>
        <time>2021-07-14T14:19:12.299Z</time>
      </trkpt>
      <trkpt lat="45.01324" lon="5.4356">
        <ele>808.36323469918</ele>
        <time>2021-07-14T14:19:15.759Z</time>
      </trkpt>
      <trkpt lat="45.01324" lon="5.43549">
        <ele>811.38660290874</ele>
        <time>2021-07-14T14:19:19.220Z</time>
      </trkpt>
      <trkpt lat="45.01319" lon="5.43539">
        <ele>814.39188534079</ele>
        <time>2021-07-14T14:19:22.683Z</time>
      </trkpt>
      <trkpt lat="45.01295" lon="5.43525">
        <ele>817.25983180434</ele>
        <time>2021-07-14T14:19:26.151Z</time>
      </trkpt>
      <trkpt lat="45.01272" lon="5.43514">
        <ele>820.15674725554</ele>
        <time>2021-07-14T14:19:29.624Z</time>
      </trkpt>
      <trkpt lat="45.01249" lon="5.43508">
        <ele>822.86968621159</ele>
        <time>2021-07-14T14:19:33.102Z</time>
      </trkpt>
      <trkpt lat="45.01231" lon="5.43471">
        <ele>826.01839203386</ele>
        <time>2021-07-14T14:19:36.586Z</time>
      </trkpt>
      <trkpt lat="45.01221" lon="5.43457">
        <ele>828.84941039896</ele>
        <time>2021-07-14T14:19:40.073Z</time>
      </trkpt>
      <trkpt lat="45.01188" lon="5.43443">
        <ele>831.56797816625</ele>
        <time>2021-07-14T14:19:43.567Z</time>
      </trkpt>
      <trkpt lat="45.01165" lon="5.43429">
        <ele>834.15096816111</ele>
        <time>2021-07-14T14:19:47.066Z</time>
      </trkpt>
      <trkpt lat="45.01123" lon="5.43392">
        <ele>836.61907350022</ele>
        <time>2021-07-14T14:19:50.575Z</time>
      </trkpt>
      <trkpt lat="45.0111" lon="5.4337">
        <ele>839.10434717734</ele>
        <time>2021-07-14T14:19:54.088Z</time>
      </trkpt>
      <trkpt lat="45.01108" lon="5.43323">
        <ele>841.96969350811</ele>
        <time>2021-07-14T14:19:57.607Z</time>
      </trkpt>
      <trkpt lat="45.01105" lon="5.43305">
        <ele>844.51156515207</ele>
        <time>2021-07-14T14:20:01.129Z</time>
      </trkpt>
      <trkpt lat="45.01092" lon="5.43277">
        <ele>847.06984213078</ele>
        <time>2021-07-14T14:20:04.656Z</time>
      </trkpt>
      <trkpt lat="45.01083" lon="5.4325">
        <ele>849.50737271558</ele>
        <time>2021-07-14T14:20:08.187Z</time>
      </trkpt>
      <trkpt lat="45.01065" lon="5.43229">
        <ele>851.91429594012</ele>
        <time>2021-07-14T14:20:11.723Z</time>
      </trkpt>
      <trkpt lat="45.01039" lon="5.43203">
        <ele>854.30184592116</ele>
        <time>2021-07-14T14:20:15.265Z</time>
      </trkpt>
      <trkpt lat="45.0102" lon="5.43181">
        <ele>856.53324127281</ele>
        <time>2021-07-14T14:20:18.812Z</time>
      </trkpt>
      <trkpt lat="45.0099" lon="5.43127">
        <ele>858.61892048031</ele>
        <time>2021-07-14T14:20:22.369Z</time>
      </trkpt>
      <trkpt lat="45.00975" lon="5.43112">
        <ele>860.18063491266</ele>
        <time>2021-07-14T14:20:25.929Z</time>
      </trkpt>
      <trkpt lat="45.00939" lon="5.43079">
        <ele>861.45118812602</ele>
        <time>2021-07-14T14:20:29.498Z</time>
      </trkpt>
      <trkpt lat="45.00932" lon="5.43059">
        <ele>862.96929227175</ele>
        <time>2021-07-14T14:20:33.070Z</time>
      </trkpt>
      <trkpt lat="45.00934" lon="5.43044">
        <ele>864.48332350596</ele>
        <time>2021-07-14T14:20:36.644Z</time>
      </trkpt>
      <trkpt lat="45.00925" lon="5.43009">
        <ele>866.04742812725</ele>
        <time>2021-07-14T14:20:40.224Z</time>
      </trkpt>
      <trkpt lat="45.00914" lon="5.42992">
        <ele>867.39534753847</ele>
        <time>2021-07-14T14:20:43.807Z</time>
      </trkpt>
      <trkpt lat="45.00899" lon="5.42976">
        <ele>868.61733600379</ele>
        <time>2021-07-14T14:20:47.394Z</time>
      </trkpt>
      <trkpt lat="45.00883" lon="5.42962">
        <ele>869.69113004971</ele>
        <time>2021-07-14T14:20:50.984Z</time>
      </trkpt>
      <trkpt lat="45.00847" lon="5.42962">
        <ele>870.45635072726</ele>
        <time>2021-07-14T14:20:54.582Z</time>
      </trkpt>
      <trkpt lat="45.00842" lon="5.42956">
        <ele>871.43874099936</ele>
        <time>2021-07-14T14:20:58.181Z</time>
      </trkpt>
      <trkpt lat="45.00842" lon="5.42952">
        <ele>872.35435677704</ele>
        <time>2021-07-14T14:21:01.780Z</time>
      </trkpt>
      <trkpt lat="45.00848" lon="5.42949">
        <ele>873.21014441773</ele>
        <time>2021-07-14T14:21:05.381Z</time>
      </trkpt>
      <trkpt lat="45.0087" lon="5.42948">
        <ele>874.18309813237</ele>
        <time>2021-07-14T14:21:08.986Z</time>
      </trkpt>
      <trkpt lat="45.00894" lon="5.42942">
        <ele>875.15166664178</ele>
        <time>2021-07-14T14:21:12.596Z</time>
      </trkpt>
      <trkpt lat="45.00938" lon="5.42942">
        <ele>875.95593469881</ele>
        <time>2021-07-14T14:21:16.215Z</time>
      </trkpt>
      <trkpt lat="45.00946" lon="5.42936">
        <ele>876.7141343465</ele>
        <time>2021-07-14T14:21:19.836Z</time>
      </trkpt>
      <trkpt lat="45.00952" lon="5.42925">
        <ele>877.4580540148</ele>
        <time>2021-07-14T14:21:23.459Z</time>
      </trkpt>
      <trkpt lat="45.00953" lon="5.42911">
        <ele>878.20095636856</ele>
        <time>2021-07-14T14:21:27.084Z</time>
      </trkpt>
      <trkpt lat="45.00946" lon="5.42854">
        <ele>879.12733059656</ele>
        <time>2021-07-14T14:21:30.717Z</time>
      </trkpt>
      <trkpt lat="45.00946" lon="5.42835">
        <ele>879.91313511326</ele>
        <time>2021-07-14T14:21:34.352Z</time>
      </trkpt>
      <trkpt lat="45.00948" lon="5.42819">
        <ele>880.72979043457</ele>
        <time>2021-07-14T14:21:37.990Z</time>
      </trkpt>
      <trkpt lat="45.00956" lon="5.42808">
        <ele>881.6050746747</ele>
        <time>2021-07-14T14:21:41.630Z</time>
      </trkpt>
      <trkpt lat="45.00999" lon="5.42787">
        <ele>882.55178488857</ele>
        <time>2021-07-14T14:21:45.279Z</time>
      </trkpt>
      <trkpt lat="45.01016" lon="5.42773">
        <ele>883.30281436164</ele>
        <time>2021-07-14T14:21:48.932Z</time>
      </trkpt>
      <trkpt lat="45.01021" lon="5.42758">
        <ele>884.18932737011</ele>
        <time>2021-07-14T14:21:52.587Z</time>
      </trkpt>
      <trkpt lat="45.01021" lon="5.42717">
        <ele>885.25712832425</ele>
        <time>2021-07-14T14:21:56.248Z</time>
      </trkpt>
      <trkpt lat="45.01024" lon="5.42713">
        <ele>886.22499840061</ele>
        <time>2021-07-14T14:21:59.910Z</time>
      </trkpt>
      <trkpt lat="45.01028" lon="5.42706">
        <ele>887.26101129256</ele>
        <time>2021-07-14T14:22:03.573Z</time>
      </trkpt>
      <trkpt lat="45.01041" lon="5.42698">
        <ele>888.36150878758</ele>
        <time>2021-07-14T14:22:07.239Z</time>
      </trkpt>
      <trkpt lat="45.01056" lon="5.42695">
        <ele>889.53468331854</ele>
        <time>2021-07-14T14:22:10.908Z</time>
      </trkpt>
      <trkpt lat="45.01075" lon="5.42672">
        <ele>890.97362435303</ele>
        <time>2021-07-14T14:22:14.582Z</time>
      </trkpt>
      <trkpt lat="45.01086" lon="5.42653">
        <ele>892.44608946708</ele>
        <time>2021-07-14T14:22:18.260Z</time>
      </trkpt>
      <trkpt lat="45.01079" lon="5.42626">
        <ele>898.89523582196</ele>
        <time>2021-07-14T14:22:21.942Z</time>
      </trkpt>
      <trkpt lat="45.01071" lon="5.42618">
        <ele>900.79125344621</ele>
        <time>2021-07-14T14:22:25.626Z</time>
      </trkpt>
      <trkpt lat="45.0107" lon="5.42609">
        <ele>902.83931851806</ele>
        <time>2021-07-14T14:22:29.311Z</time>
      </trkpt>
      <trkpt lat="45.01078" lon="5.42597">
        <ele>905.08373346783</ele>
        <time>2021-07-14T14:22:32.998Z</time>
      </trkpt>
      <trkpt lat="45.01081" lon="5.42584">
        <ele>907.45113651786</ele>
        <time>2021-07-14T14:22:36.687Z</time>
      </trkpt>
      <trkpt lat="45.01083" lon="5.42568">
        <ele>909.98600529859</ele>
        <time>2021-07-14T14:22:40.379Z</time>
      </trkpt>
      <trkpt lat="45.01088" lon="5.42548">
        <ele>912.70221735737</ele>
        <time>2021-07-14T14:22:44.074Z</time>
      </trkpt>
      <trkpt lat="45.01107" lon="5.42499">
        <ele>915.69550168748</ele>
        <time>2021-07-14T14:22:47.777Z</time>
      </trkpt>
      <trkpt lat="45.01112" lon="5.42471">
        <ele>918.58923412838</ele>
        <time>2021-07-14T14:22:51.484Z</time>
      </trkpt>
      <trkpt lat="45.01117" lon="5.42452">
        <ele>921.56034787124</ele>
        <time>2021-07-14T14:22:55.194Z</time>
      </trkpt>
      <trkpt lat="45.01144" lon="5.42383">
        <ele>924.76556436705</ele>
        <time>2021-07-14T14:22:58.915Z</time>
      </trkpt>
      <trkpt lat="45.01163" lon="5.42353">
        <ele>928.26420366452</ele>
        <time>2021-07-14T14:23:02.641Z</time>
      </trkpt>
      <trkpt lat="45.0118" lon="5.4232">
        <ele>931.92655646793</ele>
        <time>2021-07-14T14:23:06.373Z</time>
      </trkpt>
      <trkpt lat="45.01191" lon="5.4229">
        <ele>935.45243354233</ele>
        <time>2021-07-14T14:23:10.110Z</time>
      </trkpt>
      <trkpt lat="45.01202" lon="5.42266">
        <ele>938.96073924944</ele>
        <time>2021-07-14T14:23:13.851Z</time>
      </trkpt>
      <trkpt lat="45.0121" lon="5.42244">
        <ele>942.43569736735</ele>
        <time>2021-07-14T14:23:17.596Z</time>
      </trkpt>
      <trkpt lat="45.01217" lon="5.42231">
        <ele>945.83785198165</ele>
        <time>2021-07-14T14:23:21.343Z</time>
      </trkpt>
      <trkpt lat="45.01232" lon="5.42221">
        <ele>949.33965579972</ele>
        <time>2021-07-14T14:23:25.093Z</time>
      </trkpt>
      <trkpt lat="45.01239" lon="5.42206">
        <ele>952.76705845966</ele>
        <time>2021-07-14T14:23:28.846Z</time>
      </trkpt>
      <trkpt lat="45.01241" lon="5.42195">
        <ele>956.0840471758</ele>
        <time>2021-07-14T14:23:32.600Z</time>
      </trkpt>
      <trkpt lat="45.01239" lon="5.42187">
        <ele>959.28565693966</ele>
        <time>2021-07-14T14:23:36.356Z</time>
      </trkpt>
      <trkpt lat="45.0123" lon="5.42179">
        <ele>962.32113910189</ele>
        <time>2021-07-14T14:23:40.114Z</time>
      </trkpt>
      <trkpt lat="45.01225" lon="5.42169">
        <ele>965.3461205769</ele>
        <time>2021-07-14T14:23:43.874Z</time>
      </trkpt>
      <trkpt lat="45.01224" lon="5.42154">
        <ele>968.41727174702</ele>
        <time>2021-07-14T14:23:47.636Z</time>
      </trkpt>
      <trkpt lat="45.01222" lon="5.42145">
        <ele>971.33118529841</ele>
        <time>2021-07-14T14:23:51.399Z</time>
      </trkpt>
      <trkpt lat="45.01216" lon="5.42136">
        <ele>974.06120778087</ele>
        <time>2021-07-14T14:23:55.164Z</time>
      </trkpt>
      <trkpt lat="45.01211" lon="5.42116">
        <ele>976.73714380844</ele>
        <time>2021-07-14T14:23:58.932Z</time>
      </trkpt>
      <trkpt lat="45.01212" lon="5.42096">
        <ele>979.32948790307</ele>
        <time>2021-07-14T14:24:02.703Z</time>
      </trkpt>
      <trkpt lat="45.01209" lon="5.42083">
        <ele>981.57411236201</ele>
        <time>2021-07-14T14:24:06.476Z</time>
      </trkpt>
      <trkpt lat="45.01208" lon="5.42074">
        <ele>983.63624052178</ele>
        <time>2021-07-14T14:24:10.250Z</time>
      </trkpt>
      <trkpt lat="45.01211" lon="5.42055">
        <ele>985.63150367349</ele>
        <time>2021-07-14T14:24:14.027Z</time>
      </trkpt>
      <trkpt lat="45.01209" lon="5.42023">
        <ele>987.37952891301</ele>
        <time>2021-07-14T14:24:17.808Z</time>
      </trkpt>
      <trkpt lat="45.01212" lon="5.41996">
        <ele>988.92704973255</ele>
        <time>2021-07-14T14:24:21.593Z</time>
      </trkpt>
      <trkpt lat="45.01213" lon="5.41957">
        <ele>990.12886768881</ele>
        <time>2021-07-14T14:24:25.384Z</time>
      </trkpt>
      <trkpt lat="45.01217" lon="5.41936">
        <ele>991.00735313941</ele>
        <time>2021-07-14T14:24:29.178Z</time>
      </trkpt>
      <trkpt lat="45.01222" lon="5.41921">
        <ele>991.64401642561</ele>
        <time>2021-07-14T14:24:32.974Z</time>
      </trkpt>
      <trkpt lat="45.01237" lon="5.41897">
        <ele>992.03549968492</ele>
        <time>2021-07-14T14:24:36.775Z</time>
      </trkpt>
      <trkpt lat="45.01246" lon="5.4189">
        <ele>992.15611130413</ele>
        <time>2021-07-14T14:24:40.578Z</time>
      </trkpt>
      <trkpt lat="45.01248" lon="5.41886">
        <ele>991.87731084066</ele>
        <time>2021-07-14T14:24:44.381Z</time>
      </trkpt>
      <trkpt lat="45.01252" lon="5.41871">
        <ele>991.17226736486</ele>
        <time>2021-07-14T14:24:48.187Z</time>
      </trkpt>
      <trkpt lat="45.01255" lon="5.41866">
        <ele>990.24426493203</ele>
        <time>2021-07-14T14:24:51.993Z</time>
      </trkpt>
      <trkpt lat="45.01267" lon="5.41859">
        <ele>989.06189784273</ele>
        <time>2021-07-14T14:24:55.802Z</time>
      </trkpt>
      <trkpt lat="45.01279" lon="5.41839">
        <ele>987.33674812316</ele>
        <time>2021-07-14T14:24:59.615Z</time>
      </trkpt>
      <trkpt lat="45.01284" lon="5.41818">
        <ele>985.20905062909</ele>
        <time>2021-07-14T14:25:03.431Z</time>
      </trkpt>
      <trkpt lat="45.01296" lon="5.41785">
        <ele>982.57513602798</ele>
        <time>2021-07-14T14:25:07.252Z</time>
      </trkpt>
      <trkpt lat="45.01304" lon="5.41772">
        <ele>979.98680139102</ele>
        <time>2021-07-14T14:25:11.076Z</time>
      </trkpt>
      <trkpt lat="45.01336" lon="5.41739">
        <ele>977.21017726818</ele>
        <time>2021-07-14T14:25:14.908Z</time>
      </trkpt>
      <trkpt lat="45.01372" lon="5.41707">
        <ele>974.31301263794</ele>
        <time>2021-07-14T14:25:18.748Z</time>
      </trkpt>
      <trkpt lat="45.01377" lon="5.41703">
        <ele>967.5494615358</ele>
        <time>2021-07-14T14:25:26.429Z</time>
      </trkpt>
      <trkpt lat="45.01359" lon="5.41697">
        <ele>963.5831974334</ele>
        <time>2021-07-14T14:25:30.274Z</time>
      </trkpt>
      <trkpt lat="45.01336" lon="5.41696">
        <ele>959.32893214014</ele>
        <time>2021-07-14T14:25:34.123Z</time>
      </trkpt>
      <trkpt lat="45.01313" lon="5.41688">
        <ele>954.87793198926</ele>
        <time>2021-07-14T14:25:37.977Z</time>
      </trkpt>
      <trkpt lat="45.0128" lon="5.41684">
        <ele>950.12904385569</ele>
        <time>2021-07-14T14:25:41.838Z</time>
      </trkpt>
      <trkpt lat="45.0126" lon="5.4168">
        <ele>945.29079073776</ele>
        <time>2021-07-14T14:25:45.703Z</time>
      </trkpt>
      <trkpt lat="45.01226" lon="5.41668">
        <ele>940.16602994918</ele>
        <time>2021-07-14T14:25:49.575Z</time>
      </trkpt>
      <trkpt lat="45.01203" lon="5.41659">
        <ele>934.97764562855</ele>
        <time>2021-07-14T14:25:53.452Z</time>
      </trkpt>
      <trkpt lat="45.01193" lon="5.41655">
        <ele>929.72958114051</ele>
        <time>2021-07-14T14:25:57.331Z</time>
      </trkpt>
      <trkpt lat="45.01153" lon="5.41653">
        <ele>924.06373894254</ele>
        <time>2021-07-14T14:26:01.218Z</time>
      </trkpt>
      <trkpt lat="45.01116" lon="5.41645">
        <ele>918.25498487529</ele>
        <time>2021-07-14T14:26:05.112Z</time>
      </trkpt>
      <trkpt lat="45.01102" lon="5.41646">
        <ele>912.66076541975</ele>
        <time>2021-07-14T14:26:09.009Z</time>
      </trkpt>
      <trkpt lat="45.01093" lon="5.41644">
        <ele>907.07898602691</ele>
        <time>2021-07-14T14:26:12.908Z</time>
      </trkpt>
      <trkpt lat="45.01043" lon="5.41615">
        <ele>900.85977612449</ele>
        <time>2021-07-14T14:26:16.818Z</time>
      </trkpt>
      <trkpt lat="45.0103" lon="5.41615">
        <ele>895.11672837086</ele>
        <time>2021-07-14T14:26:20.730Z</time>
      </trkpt>
      <trkpt lat="45.00999" lon="5.4163">
        <ele>889.08085393507</ele>
        <time>2021-07-14T14:26:24.649Z</time>
      </trkpt>
      <trkpt lat="45.00993" lon="5.4163">
        <ele>883.62121747883</ele>
        <time>2021-07-14T14:26:28.569Z</time>
      </trkpt>
      <trkpt lat="45.00973" lon="5.41621">
        <ele>878.00219188294</ele>
        <time>2021-07-14T14:26:32.493Z</time>
      </trkpt>
      <trkpt lat="45.00967" lon="5.4162">
        <ele>872.73927564336</ele>
        <time>2021-07-14T14:26:36.418Z</time>
      </trkpt>
      <trkpt lat="45.00942" lon="5.41628">
        <ele>867.34568978603</ele>
        <time>2021-07-14T14:26:40.348Z</time>
      </trkpt>
      <trkpt lat="45.00925" lon="5.41629">
        <ele>862.18541907741</ele>
        <time>2021-07-14T14:26:44.282Z</time>
      </trkpt>
      <trkpt lat="45.00911" lon="5.41637">
        <ele>857.10056719071</ele>
        <time>2021-07-14T14:26:48.219Z</time>
      </trkpt>
      <trkpt lat="45.00895" lon="5.41658">
        <ele>852.38758849179</ele>
        <time>2021-07-14T14:26:52.160Z</time>
      </trkpt>
      <trkpt lat="45.00886" lon="5.41668">
        <ele>847.94178683994</ele>
        <time>2021-07-14T14:26:56.104Z</time>
      </trkpt>
      <trkpt lat="45.00879" lon="5.41682">
        <ele>843.737061929</ele>
        <time>2021-07-14T14:27:00.050Z</time>
      </trkpt>
      <trkpt lat="45.00865" lon="5.41691">
        <ele>839.63909041558</ele>
        <time>2021-07-14T14:27:03.999Z</time>
      </trkpt>
      <trkpt lat="45.00857" lon="5.417">
        <ele>835.85751176842</ele>
        <time>2021-07-14T14:27:07.950Z</time>
      </trkpt>
      <trkpt lat="45.00847" lon="5.41719">
        <ele>832.22530031531</ele>
        <time>2021-07-14T14:27:11.905Z</time>
      </trkpt>
      <trkpt lat="45.0084" lon="5.41728">
        <ele>828.91817054626</ele>
        <time>2021-07-14T14:27:15.861Z</time>
      </trkpt>
      <trkpt lat="45.00831" lon="5.41731">
        <ele>825.69315310057</ele>
        <time>2021-07-14T14:27:19.819Z</time>
      </trkpt>
      <trkpt lat="45.00822" lon="5.41731">
        <ele>822.50428197582</ele>
        <time>2021-07-14T14:27:23.779Z</time>
      </trkpt>
      <trkpt lat="45.00811" lon="5.41725">
        <ele>819.57212949739</ele>
        <time>2021-07-14T14:27:27.741Z</time>
      </trkpt>
      <trkpt lat="45.00805" lon="5.41719">
        <ele>816.91379925692</ele>
        <time>2021-07-14T14:27:31.705Z</time>
      </trkpt>
      <trkpt lat="45.00795" lon="5.41711">
        <ele>812.16011765208</ele>
        <time>2021-07-14T14:27:39.635Z</time>
      </trkpt>
      <trkpt lat="45.00785" lon="5.41713">
        <ele>809.98347154966</ele>
        <time>2021-07-14T14:27:43.603Z</time>
      </trkpt>
      <trkpt lat="45.00775" lon="5.41719">
        <ele>807.94965940324</ele>
        <time>2021-07-14T14:27:47.573Z</time>
      </trkpt>
      <trkpt lat="45.00741" lon="5.41755">
        <ele>805.89067344955</ele>
        <time>2021-07-14T14:27:51.552Z</time>
      </trkpt>
      <trkpt lat="45.00716" lon="5.41792">
        <ele>803.76826733592</ele>
        <time>2021-07-14T14:27:55.538Z</time>
      </trkpt>
      <trkpt lat="45.00709" lon="5.41807">
        <ele>802.12334687833</ele>
        <time>2021-07-14T14:27:59.527Z</time>
      </trkpt>
      <trkpt lat="45.00704" lon="5.41812">
        <ele>800.5746525113</ele>
        <time>2021-07-14T14:28:03.517Z</time>
      </trkpt>
      <trkpt lat="45.00698" lon="5.41812">
        <ele>799.08304777877</ele>
        <time>2021-07-14T14:28:07.508Z</time>
      </trkpt>
      <trkpt lat="45.00694" lon="5.41806">
        <ele>797.64734483544</ele>
        <time>2021-07-14T14:28:11.500Z</time>
      </trkpt>
      <trkpt lat="45.00691" lon="5.41794">
        <ele>796.29550629276</ele>
        <time>2021-07-14T14:28:15.494Z</time>
      </trkpt>
      <trkpt lat="45.00697" lon="5.41759">
        <ele>795.06137743271</ele>
        <time>2021-07-14T14:28:19.493Z</time>
      </trkpt>
      <trkpt lat="45.00703" lon="5.41746">
        <ele>793.92766926119</ele>
        <time>2021-07-14T14:28:23.494Z</time>
      </trkpt>
      <trkpt lat="45.00706" lon="5.41721">
        <ele>792.81642427989</ele>
        <time>2021-07-14T14:28:27.499Z</time>
      </trkpt>
      <trkpt lat="45.00708" lon="5.41709">
        <ele>791.69701041619</ele>
        <time>2021-07-14T14:28:31.506Z</time>
      </trkpt>
      <trkpt lat="45.0071" lon="5.41692">
        <ele>790.52669473371</ele>
        <time>2021-07-14T14:28:35.515Z</time>
      </trkpt>
      <trkpt lat="45.00717" lon="5.41682">
        <ele>789.42840097919</ele>
        <time>2021-07-14T14:28:39.526Z</time>
      </trkpt>
      <trkpt lat="45.00715" lon="5.41673">
        <ele>788.11946676924</ele>
        <time>2021-07-14T14:28:43.538Z</time>
      </trkpt>
      <trkpt lat="45.00712" lon="5.41673">
        <ele>786.74955051882</ele>
        <time>2021-07-14T14:28:47.551Z</time>
      </trkpt>
      <trkpt lat="45.00679" lon="5.41714">
        <ele>784.43247386924</ele>
        <time>2021-07-14T14:28:51.572Z</time>
      </trkpt>
      <trkpt lat="45.00665" lon="5.41731">
        <ele>781.39269528693</ele>
        <time>2021-07-14T14:28:59.618Z</time>
      </trkpt>
      <trkpt lat="45.00654" lon="5.41747">
        <ele>779.70494945941</ele>
        <time>2021-07-14T14:29:03.646Z</time>
      </trkpt>
      <trkpt lat="45.00647" lon="5.4177">
        <ele>778.02973658956</ele>
        <time>2021-07-14T14:29:07.678Z</time>
      </trkpt>
      <trkpt lat="45.00619" lon="5.41812">
        <ele>775.8948329167</ele>
        <time>2021-07-14T14:29:11.718Z</time>
      </trkpt>
      <trkpt lat="45.00616" lon="5.41818">
        <ele>774.0143652416</ele>
        <time>2021-07-14T14:29:15.759Z</time>
      </trkpt>
      <trkpt lat="45.0061" lon="5.41841">
        <ele>772.15509882804</ele>
        <time>2021-07-14T14:29:19.804Z</time>
      </trkpt>
      <trkpt lat="45.00584" lon="5.41889">
        <ele>769.93394746057</ele>
        <time>2021-07-14T14:29:23.857Z</time>
      </trkpt>
      <trkpt lat="45.00568" lon="5.41915">
        <ele>767.64659781014</ele>
        <time>2021-07-14T14:29:27.915Z</time>
      </trkpt>
      <trkpt lat="45.00557" lon="5.41936">
        <ele>765.29472695655</ele>
        <time>2021-07-14T14:29:31.977Z</time>
      </trkpt>
      <trkpt lat="45.00541" lon="5.41963">
        <ele>762.84842807149</ele>
        <time>2021-07-14T14:29:36.044Z</time>
      </trkpt>
      <trkpt lat="45.00522" lon="5.41982">
        <ele>760.16209490212</ele>
        <time>2021-07-14T14:29:40.115Z</time>
      </trkpt>
      <trkpt lat="45.00505" lon="5.42005">
        <ele>757.55125802217</ele>
        <time>2021-07-14T14:29:44.191Z</time>
      </trkpt>
      <trkpt lat="45.00496" lon="5.42022">
        <ele>754.92898380943</ele>
        <time>2021-07-14T14:29:48.270Z</time>
      </trkpt>
      <trkpt lat="45.00495" lon="5.42025">
        <ele>752.298448176</ele>
        <time>2021-07-14T14:29:52.350Z</time>
      </trkpt>
      <trkpt lat="45.00486" lon="5.42052">
        <ele>746.68338741703</ele>
        <time>2021-07-14T14:29:56.434Z</time>
      </trkpt>
      <trkpt lat="45.00473" lon="5.42099">
        <ele>743.85286733134</ele>
        <time>2021-07-14T14:30:00.525Z</time>
      </trkpt>
      <trkpt lat="45.00469" lon="5.42107">
        <ele>740.92170366267</ele>
        <time>2021-07-14T14:30:04.617Z</time>
      </trkpt>
      <trkpt lat="45.00453" lon="5.42117">
        <ele>737.82234853025</ele>
        <time>2021-07-14T14:30:08.713Z</time>
      </trkpt>
      <trkpt lat="45.00389" lon="5.42194">
        <ele>734.49787376489</ele>
        <time>2021-07-14T14:30:12.826Z</time>
      </trkpt>
      <trkpt lat="45.00376" lon="5.42201">
        <ele>731.23830466</ele>
        <time>2021-07-14T14:30:16.942Z</time>
      </trkpt>
      <trkpt lat="45.00347" lon="5.42201">
        <ele>727.67597959515</ele>
        <time>2021-07-14T14:30:21.063Z</time>
      </trkpt>
      <trkpt lat="45.00338" lon="5.42204">
        <ele>724.61535951728</ele>
        <time>2021-07-14T14:30:25.186Z</time>
      </trkpt>
      <trkpt lat="45.00319" lon="5.42216">
        <ele>721.48319279015</ele>
        <time>2021-07-14T14:30:29.313Z</time>
      </trkpt>
      <trkpt lat="45.00301" lon="5.42221">
        <ele>718.46732969009</ele>
        <time>2021-07-14T14:30:33.444Z</time>
      </trkpt>
      <trkpt lat="45.00284" lon="5.4223">
        <ele>715.48227552406</ele>
        <time>2021-07-14T14:30:37.579Z</time>
      </trkpt>
      <trkpt lat="45.00275" lon="5.42233">
        <ele>712.57935157305</ele>
        <time>2021-07-14T14:30:41.716Z</time>
      </trkpt>
      <trkpt lat="45.00265" lon="5.42232">
        <ele>709.72604747315</ele>
        <time>2021-07-14T14:30:45.854Z</time>
      </trkpt>
      <trkpt lat="45.00256" lon="5.42234">
        <ele>706.84909219291</ele>
        <time>2021-07-14T14:30:49.994Z</time>
      </trkpt>
      <trkpt lat="45.0025" lon="5.42242">
        <ele>704.15854313411</ele>
        <time>2021-07-14T14:30:54.136Z</time>
      </trkpt>
      <trkpt lat="45.00237" lon="5.4228">
        <ele>701.57396125021</ele>
        <time>2021-07-14T14:30:58.284Z</time>
      </trkpt>
      <trkpt lat="45.00231" lon="5.4229">
        <ele>699.01853675554</ele>
        <time>2021-07-14T14:31:02.434Z</time>
      </trkpt>
      <trkpt lat="45.00206" lon="5.42303">
        <ele>696.30711613244</ele>
        <time>2021-07-14T14:31:06.589Z</time>
      </trkpt>
      <trkpt lat="45.00202" lon="5.4231">
        <ele>694.09528667039</ele>
        <time>2021-07-14T14:31:10.745Z</time>
      </trkpt>
      <trkpt lat="45.0019" lon="5.42347">
        <ele>692.04695110668</ele>
        <time>2021-07-14T14:31:14.907Z</time>
      </trkpt>
      <trkpt lat="45.00183" lon="5.42358">
        <ele>690.10020545002</ele>
        <time>2021-07-14T14:31:19.071Z</time>
      </trkpt>
      <trkpt lat="45.00187" lon="5.42308">
        <ele>681.69536311628</ele>
        <time>2021-07-14T14:31:31.570Z</time>
      </trkpt>
      <trkpt lat="45.00191" lon="5.42282">
        <ele>680.0711242446</ele>
        <time>2021-07-14T14:31:39.916Z</time>
      </trkpt>
      <trkpt lat="45.00212" lon="5.42173">
        <ele>679.55825824875</ele>
        <time>2021-07-14T14:31:44.107Z</time>
      </trkpt>
      <trkpt lat="45.00212" lon="5.42163">
        <ele>679.04520919589</ele>
        <time>2021-07-14T14:31:48.299Z</time>
      </trkpt>
      <trkpt lat="45.00211" lon="5.4216">
        <ele>678.6296289911</ele>
        <time>2021-07-14T14:31:52.492Z</time>
      </trkpt>
      <trkpt lat="45.00205" lon="5.42153">
        <ele>678.30159538735</ele>
        <time>2021-07-14T14:31:56.687Z</time>
      </trkpt>
      <trkpt lat="45.00198" lon="5.4215">
        <ele>678.09203815742</ele>
        <time>2021-07-14T14:32:00.883Z</time>
      </trkpt>
      <trkpt lat="45.00191" lon="5.42148">
        <ele>677.96721790589</ele>
        <time>2021-07-14T14:32:05.080Z</time>
      </trkpt>
      <trkpt lat="45.0018" lon="5.42151">
        <ele>677.86155574336</ele>
        <time>2021-07-14T14:32:09.280Z</time>
      </trkpt>
      <trkpt lat="45.00159" lon="5.42168">
        <ele>677.82730299336</ele>
        <time>2021-07-14T14:32:13.485Z</time>
      </trkpt>
      <trkpt lat="45.00139" lon="5.42188">
        <ele>678.10352575251</ele>
        <time>2021-07-14T14:32:17.694Z</time>
      </trkpt>
      <trkpt lat="45.0012" lon="5.42217">
        <ele>678.49485370665</ele>
        <time>2021-07-14T14:32:21.909Z</time>
      </trkpt>
      <trkpt lat="45.00107" lon="5.42241">
        <ele>678.88695069839</ele>
        <time>2021-07-14T14:32:26.128Z</time>
      </trkpt>
      <trkpt lat="45.00091" lon="5.42276">
        <ele>679.35540572262</ele>
        <time>2021-07-14T14:32:30.353Z</time>
      </trkpt>
      <trkpt lat="45.00084" lon="5.42289">
        <ele>679.9968315528</ele>
        <time>2021-07-14T14:32:34.581Z</time>
      </trkpt>
      <trkpt lat="45.00073" lon="5.42295">
        <ele>680.75012942555</ele>
        <time>2021-07-14T14:32:38.811Z</time>
      </trkpt>
      <trkpt lat="45.00065" lon="5.42297">
        <ele>681.63305163077</ele>
        <time>2021-07-14T14:32:43.042Z</time>
      </trkpt>
      <trkpt lat="44.99971" lon="5.42266">
        <ele>682.9173601516</ele>
        <time>2021-07-14T14:32:47.293Z</time>
      </trkpt>
      <trkpt lat="44.9995" lon="5.42265">
        <ele>684.04745534687</ele>
        <time>2021-07-14T14:32:51.548Z</time>
      </trkpt>
      <trkpt lat="44.99932" lon="5.4227">
        <ele>686.43430910149</ele>
        <time>2021-07-14T14:33:00.062Z</time>
      </trkpt>
      <trkpt lat="44.99922" lon="5.42328">
        <ele>687.39985688847</ele>
        <time>2021-07-14T14:33:04.329Z</time>
      </trkpt>
      <trkpt lat="44.99842" lon="5.42329">
        <ele>689.09155087023</ele>
        <time>2021-07-14T14:33:08.612Z</time>
      </trkpt>
      <trkpt lat="44.9977" lon="5.42312">
        <ele>690.59265653733</ele>
        <time>2021-07-14T14:33:12.910Z</time>
      </trkpt>
      <trkpt lat="44.99767" lon="5.42333">
        <ele>692.22790141376</ele>
        <time>2021-07-14T14:33:17.211Z</time>
      </trkpt>
      <trkpt lat="44.9977" lon="5.4234">
        <ele>693.85147047485</ele>
        <time>2021-07-14T14:33:21.513Z</time>
      </trkpt>
      <trkpt lat="44.99767" lon="5.42333">
        <ele>692.22790141376</ele>
        <time>2021-07-14T14:33:30.118Z</time>
      </trkpt>
      <trkpt lat="44.99736" lon="5.42262">
        <ele>699.36118969041</ele>
        <time>2021-07-14T14:33:34.433Z</time>
      </trkpt>
      <trkpt lat="44.99647" lon="5.42171">
        <ele>701.79000321905</ele>
        <time>2021-07-14T14:33:38.770Z</time>
      </trkpt>
      <trkpt lat="44.99632" lon="5.42155">
        <ele>706.02471925579</ele>
        <time>2021-07-14T14:33:47.448Z</time>
      </trkpt>
      <trkpt lat="44.99541" lon="5.42151">
        <ele>708.36866053473</ele>
        <time>2021-07-14T14:33:51.807Z</time>
      </trkpt>
      <trkpt lat="44.99532" lon="5.42146">
        <ele>710.76427258354</ele>
        <time>2021-07-14T14:33:56.168Z</time>
      </trkpt>
      <trkpt lat="44.99521" lon="5.42154">
        <ele>713.24030120188</ele>
        <time>2021-07-14T14:34:00.531Z</time>
      </trkpt>
      <trkpt lat="44.99514" lon="5.42152">
        <ele>715.7794675402</ele>
        <time>2021-07-14T14:34:04.896Z</time>
      </trkpt>
      <trkpt lat="44.99528" lon="5.42118">
        <ele>718.38387512809</ele>
        <time>2021-07-14T14:34:09.266Z</time>
      </trkpt>
      <trkpt lat="44.99488" lon="5.42086">
        <ele>721.46388940377</ele>
        <time>2021-07-14T14:34:13.645Z</time>
      </trkpt>
      <trkpt lat="44.99426" lon="5.42059">
        <ele>724.46061897056</ele>
        <time>2021-07-14T14:34:18.037Z</time>
      </trkpt>
      <trkpt lat="44.99402" lon="5.42032">
        <ele>727.36247470463</ele>
        <time>2021-07-14T14:34:22.435Z</time>
      </trkpt>
      <trkpt lat="44.99393" lon="5.42024">
        <ele>730.22258107352</ele>
        <time>2021-07-14T14:34:26.836Z</time>
      </trkpt>
      <trkpt lat="44.99357" lon="5.41991">
        <ele>733.2378963372</ele>
        <time>2021-07-14T14:34:31.245Z</time>
      </trkpt>
      <trkpt lat="44.99319" lon="5.4192">
        <ele>736.25049357238</ele>
        <time>2021-07-14T14:34:35.667Z</time>
      </trkpt>
      <trkpt lat="44.99282" lon="5.41897">
        <ele>739.30031726335</ele>
        <time>2021-07-14T14:34:40.097Z</time>
      </trkpt>
      <trkpt lat="44.99241" lon="5.41908">
        <ele>742.49059984671</ele>
        <time>2021-07-14T14:34:44.535Z</time>
      </trkpt>
      <trkpt lat="44.99217" lon="5.41902">
        <ele>745.53099709298</ele>
        <time>2021-07-14T14:34:48.978Z</time>
      </trkpt>
      <trkpt lat="44.99194" lon="5.41859">
        <ele>748.58815061568</ele>
        <time>2021-07-14T14:34:53.429Z</time>
      </trkpt>
      <trkpt lat="44.99146" lon="5.41816">
        <ele>751.93278805542</ele>
        <time>2021-07-14T14:34:57.891Z</time>
      </trkpt>
      <trkpt lat="44.99112" lon="5.41779">
        <ele>755.16382290812</ele>
        <time>2021-07-14T14:35:02.362Z</time>
      </trkpt>
      <trkpt lat="44.99088" lon="5.41759">
        <ele>758.17197713348</ele>
        <time>2021-07-14T14:35:06.838Z</time>
      </trkpt>
      <trkpt lat="44.99077" lon="5.41756">
        <ele>761.16500494769</ele>
        <time>2021-07-14T14:35:11.316Z</time>
      </trkpt>
      <trkpt lat="44.99072" lon="5.41757">
        <ele>764.13144176347</ele>
        <time>2021-07-14T14:35:15.796Z</time>
      </trkpt>
      <trkpt lat="44.9906" lon="5.41754">
        <ele>767.16465257198</ele>
        <time>2021-07-14T14:35:20.278Z</time>
      </trkpt>
      <trkpt lat="44.99022" lon="5.41738">
        <ele>770.51404689175</ele>
        <time>2021-07-14T14:35:24.768Z</time>
      </trkpt>
      <trkpt lat="44.98982" lon="5.41726">
        <ele>773.83778603811</ele>
        <time>2021-07-14T14:35:29.266Z</time>
      </trkpt>
      <trkpt lat="44.98908" lon="5.41721">
        <ele>776.91783420284</ele>
        <time>2021-07-14T14:35:33.779Z</time>
      </trkpt>
      <trkpt lat="44.98902" lon="5.41716">
        <ele>779.75906441304</ele>
        <time>2021-07-14T14:35:38.293Z</time>
      </trkpt>
      <trkpt lat="44.98892" lon="5.41695">
        <ele>782.72967599046</ele>
        <time>2021-07-14T14:35:42.811Z</time>
      </trkpt>
      <trkpt lat="44.98887" lon="5.41695">
        <ele>785.49686863917</ele>
        <time>2021-07-14T14:35:47.330Z</time>
      </trkpt>
      <trkpt lat="44.98892" lon="5.41695">
        <ele>790.84193840083</ele>
        <time>2021-07-14T14:35:56.369Z</time>
      </trkpt>
      <trkpt lat="44.98888" lon="5.41682">
        <ele>793.59552483903</ele>
        <time>2021-07-14T14:36:00.891Z</time>
      </trkpt>
      <trkpt lat="44.98888" lon="5.41666">
        <ele>796.30621179832</ele>
        <time>2021-07-14T14:36:05.415Z</time>
      </trkpt>
      <trkpt lat="44.98891" lon="5.41646">
        <ele>799.05019731605</ele>
        <time>2021-07-14T14:36:09.942Z</time>
      </trkpt>
      <trkpt lat="44.98894" lon="5.41616">
        <ele>801.79977326691</ele>
        <time>2021-07-14T14:36:14.473Z</time>
      </trkpt>
      <trkpt lat="44.98894" lon="5.41603">
        <ele>804.50675143152</ele>
        <time>2021-07-14T14:36:19.006Z</time>
      </trkpt>
      <trkpt lat="44.98882" lon="5.41574">
        <ele>807.40616962172</ele>
        <time>2021-07-14T14:36:23.544Z</time>
      </trkpt>
      <trkpt lat="44.98882" lon="5.41557">
        <ele>810.14330273465</ele>
        <time>2021-07-14T14:36:28.084Z</time>
      </trkpt>
      <trkpt lat="44.98886" lon="5.41542">
        <ele>812.81965391135</ele>
        <time>2021-07-14T14:36:32.626Z</time>
      </trkpt>
      <trkpt lat="44.98901" lon="5.4147">
        <ele>815.89527762103</ele>
        <time>2021-07-14T14:36:37.179Z</time>
      </trkpt>
      <trkpt lat="44.98917" lon="5.41448">
        <ele>818.60067519963</ele>
        <time>2021-07-14T14:36:41.737Z</time>
      </trkpt>
      <trkpt lat="44.98922" lon="5.41438">
        <ele>821.28464378064</ele>
        <time>2021-07-14T14:36:46.296Z</time>
      </trkpt>
      <trkpt lat="44.98922" lon="5.41423">
        <ele>824.00632973285</ele>
        <time>2021-07-14T14:36:50.857Z</time>
      </trkpt>
      <trkpt lat="44.989" lon="5.41378">
        <ele>827.0646678161</ele>
        <time>2021-07-14T14:36:55.426Z</time>
      </trkpt>
      <trkpt lat="44.98894" lon="5.4137">
        <ele>829.87253860819</ele>
        <time>2021-07-14T14:36:59.997Z</time>
      </trkpt>
      <trkpt lat="44.98875" lon="5.41356">
        <ele>832.83551778616</ele>
        <time>2021-07-14T14:37:04.572Z</time>
      </trkpt>
      <trkpt lat="44.98858" lon="5.41333">
        <ele>835.62919427227</ele>
        <time>2021-07-14T14:37:09.152Z</time>
      </trkpt>
      <trkpt lat="44.98847" lon="5.41308">
        <ele>838.31223879728</ele>
        <time>2021-07-14T14:37:13.736Z</time>
      </trkpt>
      <trkpt lat="44.98835" lon="5.41297">
        <ele>841.03413290118</ele>
        <time>2021-07-14T14:37:18.323Z</time>
      </trkpt>
      <trkpt lat="44.98818" lon="5.41283">
        <ele>843.77573430358</ele>
        <time>2021-07-14T14:37:22.914Z</time>
      </trkpt>
      <trkpt lat="44.98806" lon="5.41276">
        <ele>846.53337041556</ele>
        <time>2021-07-14T14:37:27.507Z</time>
      </trkpt>
      <trkpt lat="44.98773" lon="5.41277">
        <ele>849.58051220512</ele>
        <time>2021-07-14T14:37:32.107Z</time>
      </trkpt>
      <trkpt lat="44.98757" lon="5.41273">
        <ele>852.27402752887</ele>
        <time>2021-07-14T14:37:36.710Z</time>
      </trkpt>
      <trkpt lat="44.9874" lon="5.41265">
        <ele>854.85610854024</ele>
        <time>2021-07-14T14:37:41.317Z</time>
      </trkpt>
      <trkpt lat="44.98703" lon="5.4124">
        <ele>857.59081098094</ele>
        <time>2021-07-14T14:37:45.932Z</time>
      </trkpt>
      <trkpt lat="44.98685" lon="5.41211">
        <ele>859.89297919887</ele>
        <time>2021-07-14T14:37:50.553Z</time>
      </trkpt>
      <trkpt lat="44.98677" lon="5.41185">
        <ele>861.98810686265</ele>
        <time>2021-07-14T14:37:55.177Z</time>
      </trkpt>
      <trkpt lat="44.98672" lon="5.41175">
        <ele>864.01065703515</ele>
        <time>2021-07-14T14:37:59.803Z</time>
      </trkpt>
      <trkpt lat="44.9866" lon="5.41162">
        <ele>865.96385665412</ele>
        <time>2021-07-14T14:38:04.432Z</time>
      </trkpt>
      <trkpt lat="44.98635" lon="5.41147">
        <ele>867.97431564266</ele>
        <time>2021-07-14T14:38:09.067Z</time>
      </trkpt>
      <trkpt lat="44.98628" lon="5.41142">
        <ele>869.7418863737</ele>
        <time>2021-07-14T14:38:13.703Z</time>
      </trkpt>
      <trkpt lat="44.98617" lon="5.41129">
        <ele>871.43528466596</ele>
        <time>2021-07-14T14:38:18.342Z</time>
      </trkpt>
      <trkpt lat="44.98604" lon="5.41119">
        <ele>873.04179584006</ele>
        <time>2021-07-14T14:38:22.984Z</time>
      </trkpt>
      <trkpt lat="44.98598" lon="5.41109">
        <ele>874.475248225</ele>
        <time>2021-07-14T14:38:27.628Z</time>
      </trkpt>
      <trkpt lat="44.98558" lon="5.41062">
        <ele>875.82878012594</ele>
        <time>2021-07-14T14:38:32.282Z</time>
      </trkpt>
      <trkpt lat="44.98549" lon="5.41054">
        <ele>877.0340527535</ele>
        <time>2021-07-14T14:38:36.938Z</time>
      </trkpt>
      <trkpt lat="44.98538" lon="5.41037">
        <ele>878.1513664233</ele>
        <time>2021-07-14T14:38:41.598Z</time>
      </trkpt>
      <trkpt lat="44.98532" lon="5.41024">
        <ele>879.11193584818</ele>
        <time>2021-07-14T14:38:46.260Z</time>
      </trkpt>
      <trkpt lat="44.98522" lon="5.41006">
        <ele>879.97555598114</ele>
        <time>2021-07-14T14:38:50.925Z</time>
      </trkpt>
      <trkpt lat="44.98498" lon="5.40989">
        <ele>880.76386514277</ele>
        <time>2021-07-14T14:38:55.596Z</time>
      </trkpt>
      <trkpt lat="44.98475" lon="5.40978">
        <ele>881.46632034865</ele>
        <time>2021-07-14T14:39:00.271Z</time>
      </trkpt>
      <trkpt lat="44.98442" lon="5.40951">
        <ele>882.09202576817</ele>
        <time>2021-07-14T14:39:04.954Z</time>
      </trkpt>
      <trkpt lat="44.98395" lon="5.40924">
        <ele>882.63445050733</ele>
        <time>2021-07-14T14:39:09.647Z</time>
      </trkpt>
      <trkpt lat="44.98379" lon="5.4091">
        <ele>883.07114256466</ele>
        <time>2021-07-14T14:39:14.344Z</time>
      </trkpt>
      <trkpt lat="44.98358" lon="5.40899">
        <ele>883.48089071417</ele>
        <time>2021-07-14T14:39:19.045Z</time>
      </trkpt>
      <trkpt lat="44.98324" lon="5.40894">
        <ele>883.91010090383</ele>
        <time>2021-07-14T14:39:23.753Z</time>
      </trkpt>
      <trkpt lat="44.98294" lon="5.40887">
        <ele>884.25607012369</ele>
        <time>2021-07-14T14:39:28.467Z</time>
      </trkpt>
      <trkpt lat="44.9828" lon="5.40879">
        <ele>884.52633539064</ele>
        <time>2021-07-14T14:39:33.184Z</time>
      </trkpt>
      <trkpt lat="44.98242" lon="5.40862">
        <ele>884.61344823155</ele>
        <time>2021-07-14T14:39:37.909Z</time>
      </trkpt>
      <trkpt lat="44.98232" lon="5.40858">
        <ele>885.11854033422</ele>
        <time>2021-07-14T14:39:47.361Z</time>
      </trkpt>
      <trkpt lat="44.98215" lon="5.40843">
        <ele>885.31710818175</ele>
        <time>2021-07-14T14:39:52.092Z</time>
      </trkpt>
      <trkpt lat="44.98202" lon="5.40817">
        <ele>885.60178139783</ele>
        <time>2021-07-14T14:39:56.828Z</time>
      </trkpt>
      <trkpt lat="44.98192" lon="5.40781">
        <ele>885.95260678034</ele>
        <time>2021-07-14T14:40:01.569Z</time>
      </trkpt>
      <trkpt lat="44.98183" lon="5.40759">
        <ele>886.22899672678</ele>
        <time>2021-07-14T14:40:06.314Z</time>
      </trkpt>
      <trkpt lat="44.98173" lon="5.40747">
        <ele>886.4828844692</ele>
        <time>2021-07-14T14:40:11.062Z</time>
      </trkpt>
      <trkpt lat="44.98142" lon="5.40729">
        <ele>886.79015403577</ele>
        <time>2021-07-14T14:40:15.816Z</time>
      </trkpt>
      <trkpt lat="44.9814" lon="5.40733">
        <ele>886.92622901358</ele>
        <time>2021-07-14T14:40:20.571Z</time>
      </trkpt>
      <trkpt lat="44.98142" lon="5.40729">
        <ele>886.96618847992</ele>
        <time>2021-07-14T14:40:30.082Z</time>
      </trkpt>
      <trkpt lat="44.98129" lon="5.40711">
        <ele>886.97494266499</ele>
        <time>2021-07-14T14:40:34.841Z</time>
      </trkpt>
      <trkpt lat="44.98118" lon="5.40688">
        <ele>886.85375092432</ele>
        <time>2021-07-14T14:40:39.604Z</time>
      </trkpt>
      <trkpt lat="44.98102" lon="5.40669">
        <ele>886.68041605409</ele>
        <time>2021-07-14T14:40:44.371Z</time>
      </trkpt>
      <trkpt lat="44.98067" lon="5.40639">
        <ele>886.4565549048</ele>
        <time>2021-07-14T14:40:49.147Z</time>
      </trkpt>
      <trkpt lat="44.98058" lon="5.40631">
        <ele>885.84210243867</ele>
        <time>2021-07-14T14:40:53.925Z</time>
      </trkpt>
      <trkpt lat="44.98027" lon="5.40615">
        <ele>885.05693848901</ele>
        <time>2021-07-14T14:40:58.709Z</time>
      </trkpt>
      <trkpt lat="44.97992" lon="5.40592">
        <ele>884.07769986363</ele>
        <time>2021-07-14T14:41:03.501Z</time>
      </trkpt>
      <trkpt lat="44.97956" lon="5.40573">
        <ele>882.91686779366</ele>
        <time>2021-07-14T14:41:08.301Z</time>
      </trkpt>
      <trkpt lat="44.97905" lon="5.40555">
        <ele>881.54729586643</ele>
        <time>2021-07-14T14:41:13.111Z</time>
      </trkpt>
      <trkpt lat="44.97883" lon="5.40551">
        <ele>880.05865785574</ele>
        <time>2021-07-14T14:41:17.926Z</time>
      </trkpt>
      <trkpt lat="44.97867" lon="5.40552">
        <ele>878.38667880262</ele>
        <time>2021-07-14T14:41:22.744Z</time>
      </trkpt>
      <trkpt lat="44.97859" lon="5.40556">
        <ele>876.54289175635</ele>
        <time>2021-07-14T14:41:27.564Z</time>
      </trkpt>
      <trkpt lat="44.97848" lon="5.40561">
        <ele>874.50892979247</ele>
        <time>2021-07-14T14:41:32.386Z</time>
      </trkpt>
      <trkpt lat="44.97842" lon="5.4057">
        <ele>872.34884280596</ele>
        <time>2021-07-14T14:41:37.210Z</time>
      </trkpt>
      <trkpt lat="44.97842" lon="5.40579">
        <ele>870.03453793484</ele>
        <time>2021-07-14T14:41:42.035Z</time>
      </trkpt>
      <trkpt lat="44.97842" lon="5.4057">
        <ele>872.34884280596</ele>
        <time>2021-07-14T14:41:46.861Z</time>
      </trkpt>
      <trkpt lat="44.97836" lon="5.40546">
        <ele>861.85973845013</ele>
        <time>2021-07-14T14:41:51.691Z</time>
      </trkpt>
      <trkpt lat="44.97657" lon="5.40528">
        <ele>858.17557516487</ele>
        <time>2021-07-14T14:41:56.557Z</time>
      </trkpt>
      <trkpt lat="44.97559" lon="5.40488">
        <ele>854.49026131261</ele>
        <time>2021-07-14T14:42:01.443Z</time>
      </trkpt>
      <trkpt lat="44.97529" lon="5.40462">
        <ele>851.31680722965</ele>
        <time>2021-07-14T14:42:06.336Z</time>
      </trkpt>
      <trkpt lat="44.97512" lon="5.40457">
        <ele>848.23995451682</ele>
        <time>2021-07-14T14:42:11.233Z</time>
      </trkpt>
      <trkpt lat="44.97494" lon="5.40446">
        <ele>845.16829284577</ele>
        <time>2021-07-14T14:42:16.134Z</time>
      </trkpt>
      <trkpt lat="44.97485" lon="5.4044">
        <ele>842.23440946432</ele>
        <time>2021-07-14T14:42:21.037Z</time>
      </trkpt>
      <trkpt lat="44.9746" lon="5.40432">
        <ele>839.27865257084</ele>
        <time>2021-07-14T14:42:25.945Z</time>
      </trkpt>
      <trkpt lat="44.97451" lon="5.40426">
        <ele>836.56894791864</ele>
        <time>2021-07-14T14:42:30.855Z</time>
      </trkpt>
      <trkpt lat="44.97426" lon="5.40394">
        <ele>833.9009360783</ele>
        <time>2021-07-14T14:42:35.771Z</time>
      </trkpt>
      <trkpt lat="44.97386" lon="5.40322">
        <ele>831.28817941604</ele>
        <time>2021-07-14T14:42:40.700Z</time>
      </trkpt>
      <trkpt lat="44.97361" lon="5.40283">
        <ele>828.99054650878</ele>
        <time>2021-07-14T14:42:45.637Z</time>
      </trkpt>
      <trkpt lat="44.97355" lon="5.40288">
        <ele>826.95494404376</ele>
        <time>2021-07-14T14:42:50.575Z</time>
      </trkpt>
      <trkpt lat="44.97329" lon="5.40268">
        <ele>819.79753670685</ele>
        <time>2021-07-14T14:42:55.519Z</time>
      </trkpt>
      <trkpt lat="44.97323" lon="5.40267">
        <ele>819.01418351901</ele>
        <time>2021-07-14T14:43:00.465Z</time>
      </trkpt>
      <trkpt lat="44.97303" lon="5.40251">
        <ele>818.42155557547</ele>
        <time>2021-07-14T14:43:05.415Z</time>
      </trkpt>
      <trkpt lat="44.97186" lon="5.40185">
        <ele>818.2093278332</ele>
        <time>2021-07-14T14:43:10.390Z</time>
      </trkpt>
      <trkpt lat="44.97171" lon="5.40178">
        <ele>818.11834416333</ele>
        <time>2021-07-14T14:43:15.369Z</time>
      </trkpt>
      <trkpt lat="44.97105" lon="5.40141">
        <ele>818.27053390551</ele>
        <time>2021-07-14T14:43:20.362Z</time>
      </trkpt>
      <trkpt lat="44.97079" lon="5.40129">
        <ele>818.57928191308</ele>
        <time>2021-07-14T14:43:25.360Z</time>
      </trkpt>
      <trkpt lat="44.97043" lon="5.40114">
        <ele>819.13515438384</ele>
        <time>2021-07-14T14:43:30.366Z</time>
      </trkpt>
      <trkpt lat="44.96858" lon="5.40094">
        <ele>819.84350604967</ele>
        <time>2021-07-14T14:43:35.409Z</time>
      </trkpt>
      <trkpt lat="44.96851" lon="5.40095">
        <ele>820.64762796323</ele>
        <time>2021-07-14T14:43:40.453Z</time>
      </trkpt>
      <trkpt lat="44.96686" lon="5.40117">
        <ele>821.66830722452</ele>
        <time>2021-07-14T14:43:45.530Z</time>
      </trkpt>
      <trkpt lat="44.96646" lon="5.40122">
        <ele>824.12086008271</ele>
        <time>2021-07-14T14:43:55.692Z</time>
      </trkpt>
      <trkpt lat="44.96603" lon="5.40127">
        <ele>827.15784179351</ele>
        <time>2021-07-14T14:44:05.871Z</time>
      </trkpt>
      <trkpt lat="44.96551" lon="5.40096">
        <ele>828.8132540957</ele>
        <time>2021-07-14T14:44:10.976Z</time>
      </trkpt>
      <trkpt lat="44.96497" lon="5.40098">
        <ele>830.67760938831</ele>
        <time>2021-07-14T14:44:16.092Z</time>
      </trkpt>
      <trkpt lat="44.96409" lon="5.40181">
        <ele>832.59279624844</ele>
        <time>2021-07-14T14:44:21.229Z</time>
      </trkpt>
      <trkpt lat="44.9637" lon="5.40183">
        <ele>834.51569318068</ele>
        <time>2021-07-14T14:44:26.374Z</time>
      </trkpt>
      <trkpt lat="44.96315" lon="5.40175">
        <ele>836.60007289562</ele>
        <time>2021-07-14T14:44:31.530Z</time>
      </trkpt>
      <trkpt lat="44.96214" lon="5.4014">
        <ele>838.98349408757</ele>
        <time>2021-07-14T14:44:36.707Z</time>
      </trkpt>
      <trkpt lat="44.96174" lon="5.40126">
        <ele>843.31943625206</ele>
        <time>2021-07-14T14:44:47.069Z</time>
      </trkpt>
      <trkpt lat="44.95714" lon="5.40137">
        <ele>846.19261745288</ele>
        <time>2021-07-14T14:44:52.346Z</time>
      </trkpt>
      <trkpt lat="44.95687" lon="5.40138">
        <ele>850.89678640516</ele>
        <time>2021-07-14T14:45:02.906Z</time>
      </trkpt>
      <trkpt lat="44.95681" lon="5.40138">
        <ele>855.61974435411</ele>
        <time>2021-07-14T14:45:13.473Z</time>
      </trkpt>
      <trkpt lat="44.95641" lon="5.40138">
        <ele>857.97930260877</ele>
        <time>2021-07-14T14:45:18.765Z</time>
      </trkpt>
      <trkpt lat="44.95574" lon="5.40204">
        <ele>860.59684100326</ele>
        <time>2021-07-14T14:45:24.073Z</time>
      </trkpt>
      <trkpt lat="44.95537" lon="5.4028">
        <ele>863.08468870459</ele>
        <time>2021-07-14T14:45:29.394Z</time>
      </trkpt>
      <trkpt lat="44.95506" lon="5.4032">
        <ele>865.50611621272</ele>
        <time>2021-07-14T14:45:34.724Z</time>
      </trkpt>
      <trkpt lat="44.95462" lon="5.40391">
        <ele>867.99628885251</ele>
        <time>2021-07-14T14:45:40.067Z</time>
      </trkpt>
      <trkpt lat="44.95462" lon="5.40421">
        <ele>870.30107404137</ele>
        <time>2021-07-14T14:45:45.414Z</time>
      </trkpt>
      <trkpt lat="44.95425" lon="5.40394">
        <ele>872.55691639949</ele>
        <time>2021-07-14T14:45:50.770Z</time>
      </trkpt>
      <trkpt lat="44.95387" lon="5.40342">
        <ele>875.09622490323</ele>
        <time>2021-07-14T14:45:56.136Z</time>
      </trkpt>
      <trkpt lat="44.95357" lon="5.40287">
        <ele>877.17328351366</ele>
        <time>2021-07-14T14:46:01.512Z</time>
      </trkpt>
      <trkpt lat="44.95353" lon="5.40283">
        <ele>879.13668890821</ele>
        <time>2021-07-14T14:46:06.889Z</time>
      </trkpt>
      <trkpt lat="44.95301" lon="5.4023">
        <ele>880.86848509012</ele>
        <time>2021-07-14T14:46:12.279Z</time>
      </trkpt>
      <trkpt lat="44.95257" lon="5.40166">
        <ele>882.88596343514</ele>
        <time>2021-07-14T14:46:17.682Z</time>
      </trkpt>
      <trkpt lat="44.95241" lon="5.40149">
        <ele>884.55977771397</ele>
        <time>2021-07-14T14:46:23.089Z</time>
      </trkpt>
      <trkpt lat="44.95197" lon="5.4013">
        <ele>886.31709673494</ele>
        <time>2021-07-14T14:46:28.505Z</time>
      </trkpt>
      <trkpt lat="44.95185" lon="5.40122">
        <ele>887.97055993884</ele>
        <time>2021-07-14T14:46:33.924Z</time>
      </trkpt>
      <trkpt lat="44.95171" lon="5.40109">
        <ele>889.56874778244</ele>
        <time>2021-07-14T14:46:39.346Z</time>
      </trkpt>
      <trkpt lat="44.95127" lon="5.40043">
        <ele>891.08808986408</ele>
        <time>2021-07-14T14:46:44.781Z</time>
      </trkpt>
      <trkpt lat="44.95103" lon="5.40023">
        <ele>892.50336752904</ele>
        <time>2021-07-14T14:46:50.221Z</time>
      </trkpt>
      <trkpt lat="44.9509" lon="5.40018">
        <ele>893.87629347005</ele>
        <time>2021-07-14T14:46:55.664Z</time>
      </trkpt>
      <trkpt lat="44.95056" lon="5.40007">
        <ele>895.36083219484</ele>
        <time>2021-07-14T14:47:01.114Z</time>
      </trkpt>
      <trkpt lat="44.95049" lon="5.40004">
        <ele>896.63079760474</ele>
        <time>2021-07-14T14:47:06.566Z</time>
      </trkpt>
      <trkpt lat="44.9504" lon="5.39996">
        <ele>897.82954140919</ele>
        <time>2021-07-14T14:47:12.020Z</time>
      </trkpt>
      <trkpt lat="44.95028" lon="5.39982">
        <ele>899.04658083042</ele>
        <time>2021-07-14T14:47:17.477Z</time>
      </trkpt>
      <trkpt lat="44.95006" lon="5.39945">
        <ele>900.52052596393</ele>
        <time>2021-07-14T14:47:22.941Z</time>
      </trkpt>
      <trkpt lat="44.94999" lon="5.39922">
        <ele>901.79219059467</ele>
        <time>2021-07-14T14:47:28.408Z</time>
      </trkpt>
      <trkpt lat="44.95005" lon="5.39902">
        <ele>902.88209920366</ele>
        <time>2021-07-14T14:47:33.878Z</time>
      </trkpt>
      <trkpt lat="44.9501" lon="5.39892">
        <ele>903.9287871907</ele>
        <time>2021-07-14T14:47:39.350Z</time>
      </trkpt>
      <trkpt lat="44.95048" lon="5.3985">
        <ele>904.66603206723</ele>
        <time>2021-07-14T14:47:44.831Z</time>
      </trkpt>
      <trkpt lat="44.95053" lon="5.3984">
        <ele>905.62120355816</ele>
        <time>2021-07-14T14:47:50.314Z</time>
      </trkpt>
      <trkpt lat="44.95055" lon="5.3982">
        <ele>906.65968080578</ele>
        <time>2021-07-14T14:47:55.800Z</time>
      </trkpt>
      <trkpt lat="44.9505" lon="5.39806">
        <ele>907.74785834061</ele>
        <time>2021-07-14T14:48:01.288Z</time>
      </trkpt>
      <trkpt lat="44.95037" lon="5.39798">
        <ele>908.83669468187</ele>
        <time>2021-07-14T14:48:06.779Z</time>
      </trkpt>
      <trkpt lat="44.95026" lon="5.39796">
        <ele>909.91580671573</ele>
        <time>2021-07-14T14:48:12.272Z</time>
      </trkpt>
      <trkpt lat="44.95019" lon="5.3978">
        <ele>911.99728348498</ele>
        <time>2021-07-14T14:48:17.768Z</time>
      </trkpt>
      <trkpt lat="44.95015" lon="5.39763">
        <ele>913.06781140631</ele>
        <time>2021-07-14T14:48:23.266Z</time>
      </trkpt>
      <trkpt lat="44.95014" lon="5.39738">
        <ele>914.16689731132</ele>
        <time>2021-07-14T14:48:28.768Z</time>
      </trkpt>
      <trkpt lat="44.95015" lon="5.39716">
        <ele>915.3000955133</ele>
        <time>2021-07-14T14:48:34.273Z</time>
      </trkpt>
      <trkpt lat="44.95022" lon="5.39641">
        <ele>916.6426676532</ele>
        <time>2021-07-14T14:48:39.789Z</time>
      </trkpt>
      <trkpt lat="44.95019" lon="5.3957">
        <ele>917.85700861033</ele>
        <time>2021-07-14T14:48:45.315Z</time>
      </trkpt>
      <trkpt lat="44.95026" lon="5.39522">
        <ele>919.12602123022</ele>
        <time>2021-07-14T14:48:50.848Z</time>
      </trkpt>
      <trkpt lat="44.95051" lon="5.3946">
        <ele>920.31085059375</ele>
        <time>2021-07-14T14:48:56.391Z</time>
      </trkpt>
      <trkpt lat="44.95065" lon="5.39421">
        <ele>921.5131366655</ele>
        <time>2021-07-14T14:49:01.940Z</time>
      </trkpt>
      <trkpt lat="44.9507" lon="5.39376">
        <ele>922.80422568793</ele>
        <time>2021-07-14T14:49:07.496Z</time>
      </trkpt>
      <trkpt lat="44.95081" lon="5.39346">
        <ele>924.06600412243</ele>
        <time>2021-07-14T14:49:13.057Z</time>
      </trkpt>
      <trkpt lat="44.95097" lon="5.3933">
        <ele>925.12278458199</ele>
        <time>2021-07-14T14:49:18.622Z</time>
      </trkpt>
      <trkpt lat="44.95116" lon="5.39285">
        <ele>926.37231588829</ele>
        <time>2021-07-14T14:49:24.194Z</time>
      </trkpt>
      <trkpt lat="44.95121" lon="5.3925">
        <ele>928.51275846982</ele>
        <time>2021-07-14T14:49:35.343Z</time>
      </trkpt>
      <trkpt lat="44.95128" lon="5.39213">
        <ele>929.56763864113</ele>
        <time>2021-07-14T14:49:40.926Z</time>
      </trkpt>
      <trkpt lat="44.95121" lon="5.3925">
        <ele>931.50169324021</ele>
        <time>2021-07-14T14:49:52.097Z</time>
      </trkpt>
      <trkpt lat="44.95114" lon="5.39169">
        <ele>932.3999250004</ele>
        <time>2021-07-14T14:49:57.697Z</time>
      </trkpt>
      <trkpt lat="44.95113" lon="5.39162">
        <ele>933.28885943224</ele>
        <time>2021-07-14T14:50:03.298Z</time>
      </trkpt>
      <trkpt lat="44.95089" lon="5.39092">
        <ele>934.47652844902</ele>
        <time>2021-07-14T14:50:08.910Z</time>
      </trkpt>
      <trkpt lat="44.95068" lon="5.39063">
        <ele>935.47458645961</ele>
        <time>2021-07-14T14:50:14.528Z</time>
      </trkpt>
      <trkpt lat="44.95036" lon="5.3908">
        <ele>936.31442116491</ele>
        <time>2021-07-14T14:50:20.152Z</time>
      </trkpt>
      <trkpt lat="44.95024" lon="5.39095">
        <ele>936.97414130697</ele>
        <time>2021-07-14T14:50:25.780Z</time>
      </trkpt>
      <trkpt lat="44.94994" lon="5.39103">
        <ele>937.64140479902</ele>
        <time>2021-07-14T14:50:31.414Z</time>
      </trkpt>
      <trkpt lat="44.94978" lon="5.39103">
        <ele>938.16234930878</ele>
        <time>2021-07-14T14:50:37.051Z</time>
      </trkpt>
      <trkpt lat="44.94965" lon="5.39109">
        <ele>938.64056758377</ele>
        <time>2021-07-14T14:50:42.691Z</time>
      </trkpt>
      <trkpt lat="44.9496" lon="5.39134">
        <ele>939.13577652559</ele>
        <time>2021-07-14T14:50:48.334Z</time>
      </trkpt>
      <trkpt lat="44.94963" lon="5.39165">
        <ele>939.6020249589</ele>
        <time>2021-07-14T14:50:53.982Z</time>
      </trkpt>
      <trkpt lat="44.94926" lon="5.39213">
        <ele>939.92718900654</ele>
        <time>2021-07-14T14:50:59.640Z</time>
      </trkpt>
      <trkpt lat="44.94888" lon="5.39331">
        <ele>940.20064142928</ele>
        <time>2021-07-14T14:51:05.316Z</time>
      </trkpt>
      <trkpt lat="44.94847" lon="5.39418">
        <ele>940.30850438658</ele>
        <time>2021-07-14T14:51:11.007Z</time>
      </trkpt>
      <trkpt lat="44.94853" lon="5.39451">
        <ele>940.34925283935</ele>
        <time>2021-07-14T14:51:16.703Z</time>
      </trkpt>
      <trkpt lat="44.94851" lon="5.39467">
        <ele>940.36778502806</ele>
        <time>2021-07-14T14:51:22.401Z</time>
      </trkpt>
      <trkpt lat="44.94844" lon="5.39462">
        <ele>940.44679837091</ele>
        <time>2021-07-14T14:51:28.101Z</time>
      </trkpt>
      <trkpt lat="44.94823" lon="5.39478">
        <ele>940.57703348971</ele>
        <time>2021-07-14T14:51:33.806Z</time>
      </trkpt>
      <trkpt lat="44.94818" lon="5.39487">
        <ele>940.58353609221</ele>
        <time>2021-07-14T14:51:39.512Z</time>
      </trkpt>
      <trkpt lat="44.94748" lon="5.39511">
        <ele>940.46889824922</ele>
        <time>2021-07-14T14:51:45.233Z</time>
      </trkpt>
      <trkpt lat="44.94731" lon="5.39517">
        <ele>940.4485221121</ele>
        <time>2021-07-14T14:51:50.957Z</time>
      </trkpt>
      <trkpt lat="44.94716" lon="5.39522">
        <ele>940.38114119979</ele>
        <time>2021-07-14T14:51:56.684Z</time>
      </trkpt>
      <trkpt lat="44.94714" lon="5.39515">
        <ele>940.4389137487</ele>
        <time>2021-07-14T14:52:02.412Z</time>
      </trkpt>
      <trkpt lat="44.94712" lon="5.39503">
        <ele>941.8892674779</ele>
        <time>2021-07-14T14:52:25.326Z</time>
      </trkpt>
      <trkpt lat="44.94709" lon="5.39434">
        <ele>942.59398820731</ele>
        <time>2021-07-14T14:52:31.066Z</time>
      </trkpt>
      <trkpt lat="44.947" lon="5.39395">
        <ele>943.20230904049</ele>
        <time>2021-07-14T14:52:36.812Z</time>
      </trkpt>
      <trkpt lat="44.94681" lon="5.3933">
        <ele>943.95401488389</ele>
        <time>2021-07-14T14:52:42.568Z</time>
      </trkpt>
      <trkpt lat="44.94666" lon="5.39294">
        <ele>944.76188377884</ele>
        <time>2021-07-14T14:52:48.330Z</time>
      </trkpt>
      <trkpt lat="44.94644" lon="5.39257">
        <ele>945.68583853054</ele>
        <time>2021-07-14T14:52:54.098Z</time>
      </trkpt>
      <trkpt lat="44.94635" lon="5.39244">
        <ele>946.68698639486</ele>
        <time>2021-07-14T14:52:59.869Z</time>
      </trkpt>
      <trkpt lat="44.94618" lon="5.39231">
        <ele>947.82515726943</ele>
        <time>2021-07-14T14:53:05.644Z</time>
      </trkpt>
      <trkpt lat="44.94582" lon="5.39217">
        <ele>948.96246832889</ele>
        <time>2021-07-14T14:53:11.426Z</time>
      </trkpt>
      <trkpt lat="44.94574" lon="5.39214">
        <ele>951.31352935097</ele>
        <time>2021-07-14T14:53:22.992Z</time>
      </trkpt>
      <trkpt lat="44.94563" lon="5.39204">
        <ele>952.57890439645</ele>
        <time>2021-07-14T14:53:28.779Z</time>
      </trkpt>
      <trkpt lat="44.94554" lon="5.39191">
        <ele>953.9663195457</ele>
        <time>2021-07-14T14:53:34.568Z</time>
      </trkpt>
      <trkpt lat="44.94551" lon="5.39182">
        <ele>955.48220335521</ele>
        <time>2021-07-14T14:53:40.359Z</time>
      </trkpt>
      <trkpt lat="44.94547" lon="5.39172">
        <ele>957.07572794577</ele>
        <time>2021-07-14T14:53:46.151Z</time>
      </trkpt>
      <trkpt lat="44.94543" lon="5.3915">
        <ele>958.88839469289</ele>
        <time>2021-07-14T14:53:51.947Z</time>
      </trkpt>
      <trkpt lat="44.94543" lon="5.39125">
        <ele>960.78746700834</ele>
        <time>2021-07-14T14:53:57.746Z</time>
      </trkpt>
      <trkpt lat="44.94547" lon="5.39106">
        <ele>962.68311876115</ele>
        <time>2021-07-14T14:54:03.548Z</time>
      </trkpt>
      <trkpt lat="44.94562" lon="5.39071">
        <ele>964.67840572505</ele>
        <time>2021-07-14T14:54:09.356Z</time>
      </trkpt>
      <trkpt lat="44.94576" lon="5.39047">
        <ele>966.69349400974</ele>
        <time>2021-07-14T14:54:15.168Z</time>
      </trkpt>
      <trkpt lat="44.94577" lon="5.39031">
        <ele>968.76641298777</ele>
        <time>2021-07-14T14:54:20.982Z</time>
      </trkpt>
      <trkpt lat="44.9457" lon="5.39019">
        <ele>970.79989496836</ele>
        <time>2021-07-14T14:54:26.798Z</time>
      </trkpt>
      <trkpt lat="44.94565" lon="5.39015">
        <ele>972.83896438339</ele>
        <time>2021-07-14T14:54:32.616Z</time>
      </trkpt>
      <trkpt lat="44.94543" lon="5.39011">
        <ele>974.9201792775</ele>
        <time>2021-07-14T14:54:38.438Z</time>
      </trkpt>
      <trkpt lat="44.94498" lon="5.38993">
        <ele>977.02699523848</ele>
        <time>2021-07-14T14:54:44.269Z</time>
      </trkpt>
      <trkpt lat="44.94448" lon="5.38971">
        <ele>981.37585415258</ele>
        <time>2021-07-14T14:54:55.942Z</time>
      </trkpt>
      <trkpt lat="44.94433" lon="5.38968">
        <ele>983.51559838034</ele>
        <time>2021-07-14T14:55:01.787Z</time>
      </trkpt>
      <trkpt lat="44.94413" lon="5.3897">
        <ele>985.66988149315</ele>
        <time>2021-07-14T14:55:07.636Z</time>
      </trkpt>
      <trkpt lat="44.94395" lon="5.38973">
        <ele>987.72960995152</ele>
        <time>2021-07-14T14:55:13.489Z</time>
      </trkpt>
      <trkpt lat="44.94352" lon="5.38987">
        <ele>989.6480412106</ele>
        <time>2021-07-14T14:55:19.350Z</time>
      </trkpt>
      <trkpt lat="44.94337" lon="5.38988">
        <ele>991.54473992086</ele>
        <time>2021-07-14T14:55:25.214Z</time>
      </trkpt>
      <trkpt lat="44.94317" lon="5.38986">
        <ele>993.37962032998</ele>
        <time>2021-07-14T14:55:31.082Z</time>
      </trkpt>
      <trkpt lat="44.94301" lon="5.3898">
        <ele>995.19602730262</ele>
        <time>2021-07-14T14:55:36.954Z</time>
      </trkpt>
      <trkpt lat="44.94278" lon="5.38968">
        <ele>997.04331659538</ele>
        <time>2021-07-14T14:55:42.831Z</time>
      </trkpt>
      <trkpt lat="44.94251" lon="5.3895">
        <ele>998.91637312063</ele>
        <time>2021-07-14T14:55:48.714Z</time>
      </trkpt>
      <trkpt lat="44.94235" lon="5.38945">
        <ele>1000.4876552158</ele>
        <time>2021-07-14T14:55:54.600Z</time>
      </trkpt>
      <trkpt lat="44.94221" lon="5.38947">
        <ele>1001.9003641828</ele>
        <time>2021-07-14T14:56:00.489Z</time>
      </trkpt>
      <trkpt lat="44.94213" lon="5.38956">
        <ele>1003.2336935165</ele>
        <time>2021-07-14T14:56:06.380Z</time>
      </trkpt>
      <trkpt lat="44.94208" lon="5.38972">
        <ele>1004.5202328043</ele>
        <time>2021-07-14T14:56:12.273Z</time>
      </trkpt>
      <trkpt lat="44.94209" lon="5.39039">
        <ele>1005.707474269</ele>
        <time>2021-07-14T14:56:18.176Z</time>
      </trkpt>
      <trkpt lat="44.94205" lon="5.39063">
        <ele>1006.8475185832</ele>
        <time>2021-07-14T14:56:24.082Z</time>
      </trkpt>
      <trkpt lat="44.94197" lon="5.39085">
        <ele>1007.9857094882</ele>
        <time>2021-07-14T14:56:29.992Z</time>
      </trkpt>
      <trkpt lat="44.94189" lon="5.39096">
        <ele>1009.0695125005</ele>
        <time>2021-07-14T14:56:35.904Z</time>
      </trkpt>
      <trkpt lat="44.94172" lon="5.39112">
        <ele>1010.1196330802</ele>
        <time>2021-07-14T14:56:41.820Z</time>
      </trkpt>
      <trkpt lat="44.94164" lon="5.39117">
        <ele>1011.1354523775</ele>
        <time>2021-07-14T14:56:47.738Z</time>
      </trkpt>
      <trkpt lat="44.94147" lon="5.39118">
        <ele>1012.1387062974</ele>
        <time>2021-07-14T14:56:53.659Z</time>
      </trkpt>
      <trkpt lat="44.94135" lon="5.3911">
        <ele>1013.1135379306</ele>
        <time>2021-07-14T14:56:59.583Z</time>
      </trkpt>
      <trkpt lat="44.94112" lon="5.39088">
        <ele>1014.1444754315</ele>
        <time>2021-07-14T14:57:05.513Z</time>
      </trkpt>
      <trkpt lat="44.94098" lon="5.39075">
        <ele>1015.1106885715</ele>
        <time>2021-07-14T14:57:11.446Z</time>
      </trkpt>
      <trkpt lat="44.94044" lon="5.39048">
        <ele>1016.2271139384</ele>
        <time>2021-07-14T14:57:17.390Z</time>
      </trkpt>
      <trkpt lat="44.94025" lon="5.39035">
        <ele>1017.1935133724</ele>
        <time>2021-07-14T14:57:23.339Z</time>
      </trkpt>
      <trkpt lat="44.93988" lon="5.39024">
        <ele>1018.2307350381</ele>
        <time>2021-07-14T14:57:29.295Z</time>
      </trkpt>
      <trkpt lat="44.93959" lon="5.39015">
        <ele>1019.3540573277</ele>
        <time>2021-07-14T14:57:35.257Z</time>
      </trkpt>
      <trkpt lat="44.93956" lon="5.39013">
        <ele>1020.2409780006</ele>
        <time>2021-07-14T14:57:41.220Z</time>
      </trkpt>
      <trkpt lat="44.93917" lon="5.38982">
        <ele>1022.9577322097</ele>
        <time>2021-07-14T14:57:59.118Z</time>
      </trkpt>
      <trkpt lat="44.93848" lon="5.38903">
        <ele>1023.7738541119</ele>
        <time>2021-07-14T14:58:05.108Z</time>
      </trkpt>
      <trkpt lat="44.93819" lon="5.38891">
        <ele>1024.6915230123</ele>
        <time>2021-07-14T14:58:11.104Z</time>
      </trkpt>
      <trkpt lat="44.93793" lon="5.38879">
        <ele>1026.7677346941</ele>
        <time>2021-07-14T14:58:23.101Z</time>
      </trkpt>
      <trkpt lat="44.93763" lon="5.3886">
        <ele>1027.8551006309</ele>
        <time>2021-07-14T14:58:29.109Z</time>
      </trkpt>
      <trkpt lat="44.93693" lon="5.38802">
        <ele>1028.8225763611</ele>
        <time>2021-07-14T14:58:35.133Z</time>
      </trkpt>
      <trkpt lat="44.93681" lon="5.38769">
        <ele>1030.0574543041</ele>
        <time>2021-07-14T14:58:41.162Z</time>
      </trkpt>
      <trkpt lat="44.9359" lon="5.38711">
        <ele>1031.6786644118</ele>
        <time>2021-07-14T14:58:47.211Z</time>
      </trkpt>
      <trkpt lat="44.93572" lon="5.38678">
        <ele>1033.119363297</ele>
        <time>2021-07-14T14:58:53.266Z</time>
      </trkpt>
      <trkpt lat="44.93565" lon="5.38674">
        <ele>1035.8563056917</ele>
        <time>2021-07-14T14:58:59.323Z</time>
      </trkpt>
      <trkpt lat="44.93551" lon="5.38683">
        <ele>1037.3841610612</ele>
        <time>2021-07-14T14:59:05.383Z</time>
      </trkpt>
      <trkpt lat="44.93529" lon="5.3871">
        <ele>1039.0576936363</ele>
        <time>2021-07-14T14:59:11.448Z</time>
      </trkpt>
      <trkpt lat="44.93513" lon="5.38754">
        <ele>1040.6568526621</ele>
        <time>2021-07-14T14:59:17.520Z</time>
      </trkpt>
      <trkpt lat="44.93504" lon="5.38766">
        <ele>1042.203560771</ele>
        <time>2021-07-14T14:59:23.595Z</time>
      </trkpt>
      <trkpt lat="44.93491" lon="5.38759">
        <ele>1043.8759619863</ele>
        <time>2021-07-14T14:59:29.673Z</time>
      </trkpt>
      <trkpt lat="44.93467" lon="5.38743">
        <ele>1045.6959168689</ele>
        <time>2021-07-14T14:59:35.756Z</time>
      </trkpt>
      <trkpt lat="44.93447" lon="5.38736">
        <ele>1047.4959025226</ele>
        <time>2021-07-14T14:59:41.843Z</time>
      </trkpt>
      <trkpt lat="44.93445" lon="5.38734">
        <ele>1049.2383364507</ele>
        <time>2021-07-14T14:59:47.931Z</time>
      </trkpt>
      <trkpt lat="44.93423" lon="5.38721">
        <ele>1052.9430781424</ele>
        <time>2021-07-14T15:00:00.111Z</time>
      </trkpt>
      <trkpt lat="44.93418" lon="5.38713">
        <ele>1054.8408288436</ele>
        <time>2021-07-14T15:00:06.205Z</time>
      </trkpt>
      <trkpt lat="44.93418" lon="5.38698">
        <ele>1056.7900665852</ele>
        <time>2021-07-14T15:00:12.301Z</time>
      </trkpt>
      <trkpt lat="44.93414" lon="5.38671">
        <ele>1058.8448456228</ele>
        <time>2021-07-14T15:00:18.401Z</time>
      </trkpt>
      <trkpt lat="44.93399" lon="5.38652">
        <ele>1060.9323274593</ele>
        <time>2021-07-14T15:00:24.505Z</time>
      </trkpt>
      <trkpt lat="44.93345" lon="5.38619">
        <ele>1063.2572501308</ele>
        <time>2021-07-14T15:00:30.621Z</time>
      </trkpt>
      <trkpt lat="44.93337" lon="5.38617">
        <ele>1065.4094165854</ele>
        <time>2021-07-14T15:00:36.738Z</time>
      </trkpt>
      <trkpt lat="44.9331" lon="5.38598">
        <ele>1067.7241170958</ele>
        <time>2021-07-14T15:00:42.861Z</time>
      </trkpt>
      <trkpt lat="44.93306" lon="5.3861">
        <ele>1069.898272429</ele>
        <time>2021-07-14T15:00:48.986Z</time>
      </trkpt>
      <trkpt lat="44.93298" lon="5.38619">
        <ele>1072.1013225895</ele>
        <time>2021-07-14T15:00:55.113Z</time>
      </trkpt>
      <trkpt lat="44.93285" lon="5.38621">
        <ele>1074.3730613586</ele>
        <time>2021-07-14T15:01:01.243Z</time>
      </trkpt>
      <trkpt lat="44.93262" lon="5.3862">
        <ele>1076.718255006</ele>
        <time>2021-07-14T15:01:07.377Z</time>
      </trkpt>
      <trkpt lat="44.93248" lon="5.38624">
        <ele>1079.0100660632</ele>
        <time>2021-07-14T15:01:13.514Z</time>
      </trkpt>
      <trkpt lat="44.93214" lon="5.38591">
        <ele>1081.3482115294</ele>
        <time>2021-07-14T15:01:19.660Z</time>
      </trkpt>
      <trkpt lat="44.93198" lon="5.3857">
        <ele>1083.6082172273</ele>
        <time>2021-07-14T15:01:25.810Z</time>
      </trkpt>
      <trkpt lat="44.93188" lon="5.38564">
        <ele>1085.8662354995</ele>
        <time>2021-07-14T15:01:31.962Z</time>
      </trkpt>
      <trkpt lat="44.93157" lon="5.38551">
        <ele>1088.3568765499</ele>
        <time>2021-07-14T15:01:38.121Z</time>
      </trkpt>
      <trkpt lat="44.93137" lon="5.38521">
        <ele>1090.5454580389</ele>
        <time>2021-07-14T15:01:44.285Z</time>
      </trkpt>
      <trkpt lat="44.93126" lon="5.38519">
        <ele>1092.6843548562</ele>
        <time>2021-07-14T15:01:50.452Z</time>
      </trkpt>
      <trkpt lat="44.93106" lon="5.38529">
        <ele>1094.7683877596</ele>
        <time>2021-07-14T15:01:56.623Z</time>
      </trkpt>
      <trkpt lat="44.931" lon="5.38529">
        <ele>1096.7312952231</ele>
        <time>2021-07-14T15:02:02.795Z</time>
      </trkpt>
      <trkpt lat="44.93099" lon="5.38539">
        <ele>1098.6232813471</ele>
        <time>2021-07-14T15:02:08.969Z</time>
      </trkpt>
      <trkpt lat="44.93095" lon="5.38579">
        <ele>1100.494534233</ele>
        <time>2021-07-14T15:02:15.148Z</time>
      </trkpt>
      <trkpt lat="44.9308" lon="5.38611">
        <ele>1102.4090845952</ele>
        <time>2021-07-14T15:02:21.333Z</time>
      </trkpt>
      <trkpt lat="44.93067" lon="5.38634">
        <ele>1104.1479280113</ele>
        <time>2021-07-14T15:02:27.522Z</time>
      </trkpt>
      <trkpt lat="44.93062" lon="5.38661">
        <ele>1105.8187563053</ele>
        <time>2021-07-14T15:02:33.715Z</time>
      </trkpt>
      <trkpt lat="44.93052" lon="5.38676">
        <ele>1107.3485412042</ele>
        <time>2021-07-14T15:02:39.911Z</time>
      </trkpt>
      <trkpt lat="44.93038" lon="5.3868">
        <ele>1108.7086451456</ele>
        <time>2021-07-14T15:02:46.110Z</time>
      </trkpt>
      <trkpt lat="44.93018" lon="5.38679">
        <ele>1110.0138049512</ele>
        <time>2021-07-14T15:02:52.313Z</time>
      </trkpt>
      <trkpt lat="44.93006" lon="5.38691">
        <ele>1111.2088058774</ele>
        <time>2021-07-14T15:02:58.519Z</time>
      </trkpt>
      <trkpt lat="44.92999" lon="5.38712">
        <ele>1112.2465118916</ele>
        <time>2021-07-14T15:03:04.728Z</time>
      </trkpt>
      <trkpt lat="44.92997" lon="5.38745">
        <ele>1113.1204218012</ele>
        <time>2021-07-14T15:03:10.942Z</time>
      </trkpt>
      <trkpt lat="44.92989" lon="5.38803">
        <ele>1114.1568033211</ele>
        <time>2021-07-14T15:03:17.164Z</time>
      </trkpt>
      <trkpt lat="44.92989" lon="5.38825">
        <ele>1114.7839417584</ele>
        <time>2021-07-14T15:03:23.389Z</time>
      </trkpt>
      <trkpt lat="44.9299" lon="5.38844">
        <ele>1115.1751858435</ele>
        <time>2021-07-14T15:03:29.617Z</time>
      </trkpt>
      <trkpt lat="44.92974" lon="5.38951">
        <ele>1115.2658297026</ele>
        <time>2021-07-14T15:03:35.860Z</time>
      </trkpt>
      <trkpt lat="44.92966" lon="5.38972">
        <ele>1115.2646699901</ele>
        <time>2021-07-14T15:03:42.107Z</time>
      </trkpt>
      <trkpt lat="44.92953" lon="5.38985">
        <ele>1115.1669271934</ele>
        <time>2021-07-14T15:03:48.357Z</time>
      </trkpt>
      <trkpt lat="44.92937" lon="5.3898">
        <ele>1115.0236921284</ele>
        <time>2021-07-14T15:03:54.610Z</time>
      </trkpt>
      <trkpt lat="44.92925" lon="5.38982">
        <ele>1114.6598401132</ele>
        <time>2021-07-14T15:04:00.865Z</time>
      </trkpt>
      <trkpt lat="44.92914" lon="5.39">
        <ele>1114.0789587669</ele>
        <time>2021-07-14T15:04:07.124Z</time>
      </trkpt>
      <trkpt lat="44.92849" lon="5.39055">
        <ele>1113.2782498586</ele>
        <time>2021-07-14T15:04:13.398Z</time>
      </trkpt>
      <trkpt lat="44.92818" lon="5.39026">
        <ele>1112.6993220517</ele>
        <time>2021-07-14T15:04:19.679Z</time>
      </trkpt>
      <trkpt lat="44.92811" lon="5.39021">
        <ele>1111.901796359</ele>
        <time>2021-07-14T15:04:25.962Z</time>
      </trkpt>
      <trkpt lat="44.92789" lon="5.39003">
        <ele>1109.9867426802</ele>
        <time>2021-07-14T15:04:32.250Z</time>
      </trkpt>
      <trkpt lat="44.92776" lon="5.38979">
        <ele>1108.9145165444</ele>
        <time>2021-07-14T15:04:38.542Z</time>
      </trkpt>
      <trkpt lat="44.9277" lon="5.38906">
        <ele>1107.9078884111</ele>
        <time>2021-07-14T15:04:44.845Z</time>
      </trkpt>
      <trkpt lat="44.92773" lon="5.3886">
        <ele>1106.632397099</ele>
        <time>2021-07-14T15:04:51.154Z</time>
      </trkpt>
      <trkpt lat="44.92776" lon="5.38848">
        <ele>1105.2680984802</ele>
        <time>2021-07-14T15:04:57.465Z</time>
      </trkpt>
      <trkpt lat="44.92741" lon="5.38791">
        <ele>1103.6112299952</ele>
        <time>2021-07-14T15:05:03.787Z</time>
      </trkpt>
      <trkpt lat="44.92685" lon="5.38752">
        <ele>1101.7055285991</ele>
        <time>2021-07-14T15:05:10.121Z</time>
      </trkpt>
      <trkpt lat="44.92649" lon="5.38732">
        <ele>1099.965564231</ele>
        <time>2021-07-14T15:05:16.463Z</time>
      </trkpt>
      <trkpt lat="44.92645" lon="5.38725">
        <ele>1098.4743465336</ele>
        <time>2021-07-14T15:05:22.806Z</time>
      </trkpt>
      <trkpt lat="44.9263" lon="5.38711">
        <ele>1096.883663789</ele>
        <time>2021-07-14T15:05:29.153Z</time>
      </trkpt>
      <trkpt lat="44.92617" lon="5.38683">
        <ele>1095.346589672</ele>
        <time>2021-07-14T15:05:35.505Z</time>
      </trkpt>
      <trkpt lat="44.92611" lon="5.38646">
        <ele>1093.9455152825</ele>
        <time>2021-07-14T15:05:41.862Z</time>
      </trkpt>
      <trkpt lat="44.92605" lon="5.38641">
        <ele>1092.4824518288</ele>
        <time>2021-07-14T15:05:48.221Z</time>
      </trkpt>
      <trkpt lat="44.92601" lon="5.3863">
        <ele>1091.1295006521</ele>
        <time>2021-07-14T15:05:54.581Z</time>
      </trkpt>
      <trkpt lat="44.92579" lon="5.38611">
        <ele>1089.7202339223</ele>
        <time>2021-07-14T15:06:00.947Z</time>
      </trkpt>
      <trkpt lat="44.92569" lon="5.38598">
        <ele>1088.4495416582</ele>
        <time>2021-07-14T15:06:07.315Z</time>
      </trkpt>
      <trkpt lat="44.92557" lon="5.38566">
        <ele>1087.2905337571</ele>
        <time>2021-07-14T15:06:13.688Z</time>
      </trkpt>
      <trkpt lat="44.9255" lon="5.38562">
        <ele>1086.0906512459</ele>
        <time>2021-07-14T15:06:20.063Z</time>
      </trkpt>
      <trkpt lat="44.92545" lon="5.38553">
        <ele>1084.9741203773</ele>
        <time>2021-07-14T15:06:26.440Z</time>
      </trkpt>
      <trkpt lat="44.92535" lon="5.3855">
        <ele>1083.9065245414</ele>
        <time>2021-07-14T15:06:32.819Z</time>
      </trkpt>
      <trkpt lat="44.92513" lon="5.38535">
        <ele>1082.912071911</ele>
        <time>2021-07-14T15:06:39.202Z</time>
      </trkpt>
      <trkpt lat="44.92469" lon="5.38499">
        <ele>1081.0893011813</ele>
        <time>2021-07-14T15:06:51.979Z</time>
      </trkpt>
      <trkpt lat="44.92453" lon="5.38476">
        <ele>1080.1978177615</ele>
        <time>2021-07-14T15:06:58.377Z</time>
      </trkpt>
      <trkpt lat="44.92407" lon="5.3845">
        <ele>1079.3316693114</ele>
        <time>2021-07-14T15:07:04.785Z</time>
      </trkpt>
      <trkpt lat="44.92377" lon="5.38409">
        <ele>1078.8317008682</ele>
        <time>2021-07-14T15:07:11.202Z</time>
      </trkpt>
      <trkpt lat="44.92354" lon="5.38383">
        <ele>1078.5031808749</ele>
        <time>2021-07-14T15:07:17.625Z</time>
      </trkpt>
      <trkpt lat="44.92342" lon="5.38376">
        <ele>1078.1760674392</ele>
        <time>2021-07-14T15:07:24.050Z</time>
      </trkpt>
      <trkpt lat="44.92302" lon="5.38362">
        <ele>1077.9043700723</ele>
        <time>2021-07-14T15:07:30.483Z</time>
      </trkpt>
      <trkpt lat="44.92295" lon="5.38357">
        <ele>1077.7506449764</ele>
        <time>2021-07-14T15:07:36.918Z</time>
      </trkpt>
      <trkpt lat="44.92292" lon="5.38347">
        <ele>1077.6598529404</ele>
        <time>2021-07-14T15:07:43.354Z</time>
      </trkpt>
      <trkpt lat="44.92271" lon="5.38337">
        <ele>1077.7468015812</ele>
        <time>2021-07-14T15:07:49.795Z</time>
      </trkpt>
      <trkpt lat="44.92207" lon="5.38343">
        <ele>1077.8211059728</ele>
        <time>2021-07-14T15:07:56.249Z</time>
      </trkpt>
      <trkpt lat="44.92127" lon="5.38279">
        <ele>1077.6439944117</ele>
        <time>2021-07-14T15:08:02.721Z</time>
      </trkpt>
      <trkpt lat="44.9209" lon="5.38251">
        <ele>1077.7047613339</ele>
        <time>2021-07-14T15:08:09.202Z</time>
      </trkpt>
      <trkpt lat="44.9208" lon="5.38244">
        <ele>1078.1507903585</ele>
        <time>2021-07-14T15:08:22.166Z</time>
      </trkpt>
      <trkpt lat="44.92065" lon="5.38228">
        <ele>1078.3808388357</ele>
        <time>2021-07-14T15:08:28.653Z</time>
      </trkpt>
      <trkpt lat="44.92049" lon="5.38177">
        <ele>1078.6892550697</ele>
        <time>2021-07-14T15:08:35.148Z</time>
      </trkpt>
      <trkpt lat="44.92038" lon="5.38161">
        <ele>1079.0337142063</ele>
        <time>2021-07-14T15:08:41.646Z</time>
      </trkpt>
      <trkpt lat="44.92016" lon="5.38151">
        <ele>1079.4822126176</ele>
        <time>2021-07-14T15:08:48.148Z</time>
      </trkpt>
      <trkpt lat="44.91949" lon="5.38133">
        <ele>1079.9397067338</ele>
        <time>2021-07-14T15:08:54.664Z</time>
      </trkpt>
      <trkpt lat="44.9192" lon="5.3814">
        <ele>1080.1592146091</ele>
        <time>2021-07-14T15:09:01.186Z</time>
      </trkpt>
      <trkpt lat="44.91858" lon="5.38144">
        <ele>1080.4180427219</ele>
        <time>2021-07-14T15:09:07.720Z</time>
      </trkpt>
      <trkpt lat="44.91816" lon="5.38123">
        <ele>1080.6871792784</ele>
        <time>2021-07-14T15:09:14.263Z</time>
      </trkpt>
      <trkpt lat="44.91791" lon="5.381">
        <ele>1080.6830322003</ele>
        <time>2021-07-14T15:09:20.812Z</time>
      </trkpt>
      <trkpt lat="44.9177" lon="5.38068">
        <ele>1080.523824325</ele>
        <time>2021-07-14T15:09:27.367Z</time>
      </trkpt>
      <trkpt lat="44.91747" lon="5.37988">
        <ele>1080.38789735</ele>
        <time>2021-07-14T15:09:33.935Z</time>
      </trkpt>
      <trkpt lat="44.91697" lon="5.37967">
        <ele>1079.7093712217</ele>
        <time>2021-07-14T15:09:40.513Z</time>
      </trkpt>
      <trkpt lat="44.91651" lon="5.37956">
        <ele>1078.9279741519</ele>
        <time>2021-07-14T15:09:47.101Z</time>
      </trkpt>
      <trkpt lat="44.91454" lon="5.37977">
        <ele>1078.1087386997</ele>
        <time>2021-07-14T15:09:53.728Z</time>
      </trkpt>
      <trkpt lat="44.91437" lon="5.37979">
        <ele>1076.9991584189</ele>
        <time>2021-07-14T15:10:00.358Z</time>
      </trkpt>
      <trkpt lat="44.91415" lon="5.37977">
        <ele>1075.6681291031</ele>
        <time>2021-07-14T15:10:06.993Z</time>
      </trkpt>
      <trkpt lat="44.91341" lon="5.37967">
        <ele>1072.1295281975</ele>
        <time>2021-07-14T15:10:20.278Z</time>
      </trkpt>
      <trkpt lat="44.91315" lon="5.38001">
        <ele>1070.414744709</ele>
        <time>2021-07-14T15:10:26.935Z</time>
      </trkpt>
      <trkpt lat="44.91306" lon="5.38002">
        <ele>1068.8490914823</ele>
        <time>2021-07-14T15:10:33.594Z</time>
      </trkpt>
      <trkpt lat="44.91254" lon="5.37966">
        <ele>1067.1264874192</ele>
        <time>2021-07-14T15:10:40.264Z</time>
      </trkpt>
      <trkpt lat="44.91209" lon="5.3795">
        <ele>1065.3463467008</ele>
        <time>2021-07-14T15:10:46.944Z</time>
      </trkpt>
      <trkpt lat="44.91157" lon="5.37963">
        <ele>1063.5567377651</ele>
        <time>2021-07-14T15:10:53.634Z</time>
      </trkpt>
      <trkpt lat="44.91132" lon="5.38029">
        <ele>1061.9683164569</ele>
        <time>2021-07-14T15:11:00.335Z</time>
      </trkpt>
      <trkpt lat="44.91" lon="5.38167">
        <ele>1060.8588912519</ele>
        <time>2021-07-14T15:11:07.069Z</time>
      </trkpt>
      <trkpt lat="44.90848" lon="5.3818">
        <ele>1059.1733777354</ele>
        <time>2021-07-14T15:11:13.833Z</time>
      </trkpt>
      <trkpt lat="44.90823" lon="5.38168">
        <ele>1057.9659879621</ele>
        <time>2021-07-14T15:11:20.602Z</time>
      </trkpt>
      <trkpt lat="44.90803" lon="5.38134">
        <ele>1056.9814868216</ele>
        <time>2021-07-14T15:11:27.377Z</time>
      </trkpt>
      <trkpt lat="44.90784" lon="5.38109">
        <ele>1054.4324919434</ele>
        <time>2021-07-14T15:11:34.158Z</time>
      </trkpt>
      <trkpt lat="44.90777" lon="5.38094">
        <ele>1053.7748141116</ele>
        <time>2021-07-14T15:11:40.941Z</time>
      </trkpt>
      <trkpt lat="44.90757" lon="5.38095">
        <ele>1053.2858238516</ele>
        <time>2021-07-14T15:11:47.728Z</time>
      </trkpt>
      <trkpt lat="44.90742" lon="5.381">
        <ele>1052.3296735962</ele>
        <time>2021-07-14T15:12:01.305Z</time>
      </trkpt>
      <trkpt lat="44.90676" lon="5.38092">
        <ele>1051.8110314634</ele>
        <time>2021-07-14T15:12:08.109Z</time>
      </trkpt>
      <trkpt lat="44.9065" lon="5.3807">
        <ele>1051.4664096887</ele>
        <time>2021-07-14T15:12:14.919Z</time>
      </trkpt>
      <trkpt lat="44.90642" lon="5.3804">
        <ele>1051.1991594614</ele>
        <time>2021-07-14T15:12:21.733Z</time>
      </trkpt>
      <trkpt lat="44.90642" lon="5.37958">
        <ele>1050.8490447322</ele>
        <time>2021-07-14T15:12:28.559Z</time>
      </trkpt>
      <trkpt lat="44.90621" lon="5.37911">
        <ele>1050.7006121642</ele>
        <time>2021-07-14T15:12:35.393Z</time>
      </trkpt>
      <trkpt lat="44.90547" lon="5.37829">
        <ele>1050.7495395029</ele>
        <time>2021-07-14T15:12:42.246Z</time>
      </trkpt>
      <trkpt lat="44.90514" lon="5.37779">
        <ele>1050.7861051612</ele>
        <time>2021-07-14T15:12:49.109Z</time>
      </trkpt>
      <trkpt lat="44.90495" lon="5.37743">
        <ele>1050.6769947856</ele>
        <time>2021-07-14T15:12:55.978Z</time>
      </trkpt>
      <trkpt lat="44.90484" lon="5.37701">
        <ele>1050.5400438938</ele>
        <time>2021-07-14T15:13:02.853Z</time>
      </trkpt>
      <trkpt lat="44.90458" lon="5.37673">
        <ele>1050.4820178654</ele>
        <time>2021-07-14T15:13:09.735Z</time>
      </trkpt>
      <trkpt lat="44.90423" lon="5.37653">
        <ele>1050.340558564</ele>
        <time>2021-07-14T15:13:16.624Z</time>
      </trkpt>
      <trkpt lat="44.90337" lon="5.37629">
        <ele>1050.5166160425</ele>
        <time>2021-07-14T15:13:23.531Z</time>
      </trkpt>
      <trkpt lat="44.9031" lon="5.37637">
        <ele>1050.4238596494</ele>
        <time>2021-07-14T15:13:30.443Z</time>
      </trkpt>
      <trkpt lat="44.903" lon="5.37628">
        <ele>1050.0873415574</ele>
        <time>2021-07-14T15:13:37.358Z</time>
      </trkpt>
      <trkpt lat="44.90282" lon="5.37603">
        <ele>1049.6253992488</ele>
        <time>2021-07-14T15:13:44.278Z</time>
      </trkpt>
      <trkpt lat="44.90251" lon="5.37578">
        <ele>1049.1514594767</ele>
        <time>2021-07-14T15:13:51.205Z</time>
      </trkpt>
      <trkpt lat="44.90215" lon="5.37555">
        <ele>1048.7022522787</ele>
        <time>2021-07-14T15:13:58.140Z</time>
      </trkpt>
      <trkpt lat="44.90163" lon="5.37496">
        <ele>1048.2901840442</ele>
        <time>2021-07-14T15:14:05.088Z</time>
      </trkpt>
      <trkpt lat="44.90099" lon="5.375">
        <ele>1047.4986277523</ele>
        <time>2021-07-14T15:14:12.049Z</time>
      </trkpt>
      <trkpt lat="44.90074" lon="5.37488">
        <ele>1046.9261562278</ele>
        <time>2021-07-14T15:14:19.015Z</time>
      </trkpt>
      <trkpt lat="44.90036" lon="5.37483">
        <ele>1046.4076496028</ele>
        <time>2021-07-14T15:14:25.989Z</time>
      </trkpt>
      <trkpt lat="44.90019" lon="5.37472">
        <ele>1045.8174885629</ele>
        <time>2021-07-14T15:14:32.967Z</time>
      </trkpt>
      <trkpt lat="44.89999" lon="5.37443">
        <ele>1045.1666878418</ele>
        <time>2021-07-14T15:14:39.950Z</time>
      </trkpt>
      <trkpt lat="44.89973" lon="5.37419">
        <ele>1044.3806133558</ele>
        <time>2021-07-14T15:14:46.939Z</time>
      </trkpt>
      <trkpt lat="44.89934" lon="5.37377">
        <ele>1043.4235819472</ele>
        <time>2021-07-14T15:14:53.938Z</time>
      </trkpt>
      <trkpt lat="44.89907" lon="5.37348">
        <ele>1042.9065438717</ele>
        <time>2021-07-14T15:15:00.944Z</time>
      </trkpt>
      <trkpt lat="44.89878" lon="5.37257">
        <ele>1042.8136623224</ele>
        <time>2021-07-14T15:15:07.964Z</time>
      </trkpt>
      <trkpt lat="44.89861" lon="5.37208">
        <ele>1041.5156215826</ele>
        <time>2021-07-14T15:15:22.012Z</time>
      </trkpt>
      <trkpt lat="44.89797" lon="5.37083">
        <ele>1041.2038732081</ele>
        <time>2021-07-14T15:15:29.062Z</time>
      </trkpt>
      <trkpt lat="44.89742" lon="5.3702">
        <ele>1041.1824793349</ele>
        <time>2021-07-14T15:15:36.126Z</time>
      </trkpt>
      <trkpt lat="44.89733" lon="5.36963">
        <ele>1041.3204498398</ele>
        <time>2021-07-14T15:15:43.198Z</time>
      </trkpt>
      <trkpt lat="44.89712" lon="5.3694">
        <ele>1041.261927164</ele>
        <time>2021-07-14T15:15:50.276Z</time>
      </trkpt>
      <trkpt lat="44.89689" lon="5.36917">
        <ele>1041.3894111186</ele>
        <time>2021-07-14T15:15:57.359Z</time>
      </trkpt>
      <trkpt lat="44.89673" lon="5.36924">
        <ele>1041.7973831026</ele>
        <time>2021-07-14T15:16:04.445Z</time>
      </trkpt>
      <trkpt lat="44.89674" lon="5.36924">
        <ele>1042.4113838821</ele>
        <time>2021-07-14T15:16:11.531Z</time>
      </trkpt>
      <trkpt lat="44.89663" lon="5.3693">
        <ele>1043.3277415992</ele>
        <time>2021-07-14T15:16:18.620Z</time>
      </trkpt>
      <trkpt lat="44.89653" lon="5.36936">
        <ele>1044.4202344759</ele>
        <time>2021-07-14T15:16:25.711Z</time>
      </trkpt>
      <trkpt lat="44.89645" lon="5.36946">
        <ele>1045.6626047109</ele>
        <time>2021-07-14T15:16:32.804Z</time>
      </trkpt>
      <trkpt lat="44.89637" lon="5.36959">
        <ele>1046.9887163326</ele>
        <time>2021-07-14T15:16:39.900Z</time>
      </trkpt>
      <trkpt lat="44.89631" lon="5.36972">
        <ele>1048.3651041549</ele>
        <time>2021-07-14T15:16:46.998Z</time>
      </trkpt>
      <trkpt lat="44.89625" lon="5.36991">
        <ele>1049.80800806</ele>
        <time>2021-07-14T15:16:54.099Z</time>
      </trkpt>
      <trkpt lat="44.89613" lon="5.37037">
        <ele>1051.3497310965</ele>
        <time>2021-07-14T15:17:01.207Z</time>
      </trkpt>
      <trkpt lat="44.89606" lon="5.37055">
        <ele>1052.2857331345</ele>
        <time>2021-07-14T15:17:08.318Z</time>
      </trkpt>
      <trkpt lat="44.89596" lon="5.37067">
        <ele>1053.1604690939</ele>
        <time>2021-07-14T15:17:15.431Z</time>
      </trkpt>
      <trkpt lat="44.89578" lon="5.37074">
        <ele>1053.8990273731</ele>
        <time>2021-07-14T15:17:22.548Z</time>
      </trkpt>
    </trkseg>
  </trk>
</gpx>